Time,TemperatureF,DewpointF,PressureIn,WindDirection,WindDirectionDegrees,WindSpeedMPH,WindSpeedGustMPH,Humidity,HourlyPrecipIn,Conditions,Clouds,dailyrainin,SoftwareType,DateUTC
2013-11-04 00:00:00,34.9,33.6,30.33,South,189,0.0,0.0,95,0.00,,,0.00,Wunderground v.1.15,2013-11-04 05:00:00,
2013-11-04 00:01:00,34.8,33.5,30.33,South,189,0.0,0.0,95,0.00,,,0.00,Wunderground v.1.15,2013-11-04 05:01:00,
2013-11-04 00:02:00,34.8,33.5,30.33,South,189,0.0,0.0,95,0.00,,,0.00,Wunderground v.1.15,2013-11-04 05:02:00,
2013-11-04 00:03:00,34.8,33.5,30.33,South,189,0.0,0.0,95,0.00,,,0.00,Wunderground v.1.15,2013-11-04 05:03:00,
2013-11-04 00:05:00,34.8,33.5,30.33,South,189,0.0,0.0,95,0.00,,,0.00,Wunderground v.1.15,2013-11-04 05:05:00,
2013-11-04 00:07:00,34.8,33.5,30.33,South,189,0.0,0.0,95,0.00,,,0.00,Wunderground v.1.15,2013-11-04 05:07:00,
2013-11-04 00:08:00,34.8,33.5,30.33,South,189,0.0,0.0,95,0.00,,,0.00,Wunderground v.1.15,2013-11-04 05:08:00,
2013-11-04 00:11:00,34.8,33.8,30.33,South,189,0.0,0.0,96,0.00,,,0.00,Wunderground v.1.15,2013-11-04 05:11:00,
2013-11-04 00:12:00,34.9,33.9,30.33,South,189,0.0,0.0,96,0.00,,,0.00,Wunderground v.1.15,2013-11-04 05:12:00,
2013-11-04 00:13:00,34.9,33.9,30.33,South,189,0.0,0.0,96,0.00,,,0.00,Wunderground v.1.15,2013-11-04 05:13:00,
2013-11-04 00:15:00,34.9,33.9,30.32,South,189,0.0,0.0,96,0.00,,,0.00,Wunderground v.1.15,2013-11-04 05:15:00,
2013-11-04 00:17:00,34.9,33.9,30.32,South,189,0.0,0.0,96,0.00,,,0.00,Wunderground v.1.15,2013-11-04 05:17:00,
2013-11-04 00:18:00,35.1,34.1,30.32,South,189,0.0,0.0,96,0.00,,,0.00,Wunderground v.1.15,2013-11-04 05:18:00,
2013-11-04 00:19:00,35.1,34.1,30.32,South,189,0.0,0.0,96,0.00,,,0.00,Wunderground v.1.15,2013-11-04 05:19:00,
2013-11-04 00:20:00,35.1,34.1,30.32,South,189,0.0,0.0,96,0.00,,,0.00,Wunderground v.1.15,2013-11-04 05:20:00,
2013-11-04 00:23:00,35.1,34.1,30.32,South,189,0.0,0.0,96,0.00,,,0.00,Wunderground v.1.15,2013-11-04 05:23:00,
2013-11-04 00:24:00,35.1,34.1,30.32,South,189,0.0,0.0,96,0.00,,,0.00,Wunderground v.1.15,2013-11-04 05:24:00,
2013-11-04 00:25:00,35.2,34.2,30.32,South,189,0.0,0.0,96,0.00,,,0.00,Wunderground v.1.15,2013-11-04 05:25:00,
2013-11-04 00:28:00,35.2,34.2,30.32,South,189,0.0,0.0,96,0.00,,,0.00,Wunderground v.1.15,2013-11-04 05:28:00,
2013-11-04 00:29:00,35.2,34.2,30.32,South,189,0.0,0.0,96,0.00,,,0.00,Wunderground v.1.15,2013-11-04 05:29:00,
2013-11-04 00:30:00,35.2,34.2,30.32,South,189,0.0,0.0,96,0.00,,,0.00,Wunderground v.1.15,2013-11-04 05:30:00,
2013-11-04 00:32:00,35.2,34.2,30.32,South,189,0.0,0.0,96,0.00,,,0.00,Wunderground v.1.15,2013-11-04 05:32:00,
2013-11-04 00:33:00,35.4,34.4,30.32,South,189,0.0,0.0,96,0.00,,,0.00,Wunderground v.1.15,2013-11-04 05:33:00,
2013-11-04 00:34:00,35.4,34.4,30.32,South,189,0.0,0.0,96,0.00,,,0.00,Wunderground v.1.15,2013-11-04 05:34:00,
2013-11-04 00:35:00,35.4,34.4,30.32,South,189,0.0,0.0,96,0.00,,,0.00,Wunderground v.1.15,2013-11-04 05:35:00,
2013-11-04 00:39:00,35.5,34.7,30.32,South,189,0.0,0.0,97,0.00,,,0.00,Wunderground v.1.15,2013-11-04 05:39:00,
2013-11-04 00:40:00,35.5,34.7,30.32,South,189,0.0,0.0,97,0.00,,,0.00,Wunderground v.1.15,2013-11-04 05:40:00,
2013-11-04 00:41:00,35.5,34.7,30.32,South,189,0.0,0.0,97,0.00,,,0.00,Wunderground v.1.15,2013-11-04 05:41:00,
2013-11-04 00:43:00,35.5,34.7,30.32,South,189,0.0,0.0,97,0.00,,,0.00,Wunderground v.1.15,2013-11-04 05:43:00,
2013-11-04 00:44:00,35.5,34.7,30.32,South,189,0.0,0.0,97,0.00,,,0.00,Wunderground v.1.15,2013-11-04 05:44:00,
2013-11-04 00:48:00,35.7,34.9,30.31,South,189,0.0,0.0,97,0.00,,,0.00,Wunderground v.1.15,2013-11-04 05:48:00,
2013-11-04 00:49:00,35.7,34.9,30.31,South,189,0.0,0.0,97,0.00,,,0.00,Wunderground v.1.15,2013-11-04 05:49:00,
2013-11-04 00:54:00,35.8,35.0,30.31,South,189,0.0,0.0,97,0.00,,,0.00,Wunderground v.1.15,2013-11-04 05:54:00,
2013-11-04 00:57:00,36.0,35.2,30.31,South,189,0.0,0.0,97,0.00,,,0.00,Wunderground v.1.15,2013-11-04 05:57:00,
2013-11-04 00:58:00,36.0,35.2,30.31,South,189,0.0,0.0,97,0.00,,,0.00,Wunderground v.1.15,2013-11-04 05:58:00,
2013-11-04 01:01:00,36.0,35.2,30.31,South,189,0.0,0.0,97,0.00,,,0.00,Wunderground v.1.15,2013-11-04 06:01:00,
2013-11-04 01:03:00,36.1,35.3,30.31,South,189,0.0,0.0,97,0.00,,,0.00,Wunderground v.1.15,2013-11-04 06:03:00,
2013-11-04 01:04:00,36.1,35.3,30.31,South,189,0.0,0.0,97,0.00,,,0.00,Wunderground v.1.15,2013-11-04 06:04:00,
2013-11-04 01:05:00,36.1,35.3,30.31,South,189,0.0,0.0,97,0.00,,,0.00,Wunderground v.1.15,2013-11-04 06:05:00,
2013-11-04 01:06:00,36.1,35.3,30.31,South,189,0.0,0.0,97,0.00,,,0.00,Wunderground v.1.15,2013-11-04 06:06:00,
2013-11-04 01:10:00,36.3,35.5,30.31,South,189,0.0,0.0,97,0.00,,,0.00,Wunderground v.1.15,2013-11-04 06:10:00,
2013-11-04 01:11:00,36.4,35.6,30.31,South,189,0.0,0.0,97,0.00,,,0.00,Wunderground v.1.15,2013-11-04 06:11:00,
2013-11-04 01:12:00,36.5,35.7,30.31,South,189,0.0,0.0,97,0.00,,,0.00,Wunderground v.1.15,2013-11-04 06:12:00,
2013-11-04 01:14:00,36.5,35.7,30.31,South,189,0.0,0.0,97,0.00,,,0.00,Wunderground v.1.15,2013-11-04 06:14:00,
2013-11-04 01:16:00,36.7,35.9,30.30,South,189,0.0,0.0,97,0.00,,,0.00,Wunderground v.1.15,2013-11-04 06:16:00,
2013-11-04 01:17:00,36.7,35.9,30.30,South,189,0.0,0.0,97,0.00,,,0.00,Wunderground v.1.15,2013-11-04 06:17:00,
2013-11-04 01:21:00,36.8,36.0,30.30,South,189,0.0,0.0,97,0.00,,,0.00,Wunderground v.1.15,2013-11-04 06:21:00,
2013-11-04 01:22:00,36.8,36.0,30.30,South,189,0.0,0.0,97,0.00,,,0.00,Wunderground v.1.15,2013-11-04 06:22:00,
2013-11-04 01:23:00,37.0,36.2,30.30,South,189,0.0,0.0,97,0.00,,,0.00,Wunderground v.1.15,2013-11-04 06:23:00,
2013-11-04 01:24:00,37.0,36.2,30.30,South,189,0.0,0.0,97,0.00,,,0.00,Wunderground v.1.15,2013-11-04 06:24:00,
2013-11-04 01:28:00,37.1,36.3,30.30,South,189,0.0,0.0,97,0.00,,,0.00,Wunderground v.1.15,2013-11-04 06:28:00,
2013-11-04 01:29:00,37.4,36.6,30.30,South,189,0.0,0.0,97,0.00,,,0.00,Wunderground v.1.15,2013-11-04 06:29:00,
2013-11-04 01:30:00,37.5,36.7,30.32,South,189,0.0,0.0,97,0.00,,,0.00,Wunderground v.1.15,2013-11-04 06:30:00,
2013-11-04 01:34:00,38.5,37.7,30.32,South,189,0.0,0.0,97,0.00,,,0.00,Wunderground v.1.15,2013-11-04 06:34:00,
2013-11-04 01:37:00,39.1,38.1,30.32,South,189,0.0,0.0,96,0.00,,,0.00,Wunderground v.1.15,2013-11-04 06:37:00,
2013-11-04 01:39:00,39.3,38.0,30.32,South,189,0.0,0.0,95,0.00,,,0.00,Wunderground v.1.15,2013-11-04 06:39:00,
2013-11-04 01:40:00,39.4,38.1,30.32,South,189,0.0,0.0,95,0.00,,,0.00,Wunderground v.1.15,2013-11-04 06:40:00,
2013-11-04 01:42:00,39.7,38.1,30.32,South,189,0.0,0.0,94,0.00,,,0.00,Wunderground v.1.15,2013-11-04 06:42:00,
2013-11-04 01:45:00,39.7,37.8,30.32,South,189,0.0,0.0,93,0.00,,,0.00,Wunderground v.1.15,2013-11-04 06:45:00,
2013-11-04 01:46:00,39.8,37.9,30.32,South,189,0.0,0.0,93,0.00,,,0.00,Wunderground v.1.15,2013-11-04 06:46:00,
2013-11-04 01:47:00,39.8,37.9,30.32,South,189,0.0,0.0,93,0.00,,,0.00,Wunderground v.1.15,2013-11-04 06:47:00,
2013-11-04 01:48:00,39.8,37.7,30.32,South,189,0.0,0.0,92,0.00,,,0.00,Wunderground v.1.15,2013-11-04 06:48:00,
2013-11-04 01:50:00,40.0,37.9,30.32,South,189,0.0,0.0,92,0.00,,,0.00,Wunderground v.1.15,2013-11-04 06:50:00,
2013-11-04 01:53:00,40.0,37.9,30.32,South,189,0.0,0.0,92,0.00,,,0.00,Wunderground v.1.15,2013-11-04 06:53:00,
2013-11-04 01:55:00,40.0,37.9,30.32,South,189,0.0,0.0,92,0.00,,,0.00,Wunderground v.1.15,2013-11-04 06:55:00,
2013-11-04 01:56:00,40.0,37.9,30.32,South,189,0.0,0.0,92,0.00,,,0.00,Wunderground v.1.15,2013-11-04 06:56:00,
2013-11-04 01:57:00,40.0,37.9,30.32,South,189,0.0,0.0,92,0.00,,,0.00,Wunderground v.1.15,2013-11-04 06:57:00,
2013-11-04 02:02:00,39.8,37.4,30.32,South,189,0.0,0.0,91,0.00,,,0.00,Wunderground v.1.15,2013-11-04 07:02:00,
2013-11-04 02:03:00,39.8,37.4,30.32,South,189,0.0,0.0,91,0.00,,,0.00,Wunderground v.1.15,2013-11-04 07:03:00,
2013-11-04 02:05:00,39.8,37.4,30.32,South,189,0.0,0.0,91,0.00,,,0.00,Wunderground v.1.15,2013-11-04 07:05:00,
2013-11-04 02:06:00,39.8,37.4,30.32,South,189,0.0,0.0,91,0.00,,,0.00,Wunderground v.1.15,2013-11-04 07:06:00,
2013-11-04 02:07:00,39.7,37.3,30.32,South,189,0.0,0.0,91,0.00,,,0.00,Wunderground v.1.15,2013-11-04 07:07:00,
2013-11-04 02:08:00,39.7,37.6,30.32,South,189,0.0,0.0,92,0.00,,,0.00,Wunderground v.1.15,2013-11-04 07:08:00,
2013-11-04 02:09:00,39.7,37.6,30.32,South,189,0.0,0.0,92,0.00,,,0.00,Wunderground v.1.15,2013-11-04 07:09:00,
2013-11-04 02:11:00,39.7,37.6,30.32,South,189,0.0,0.0,92,0.00,,,0.00,Wunderground v.1.15,2013-11-04 07:11:00,
2013-11-04 02:13:00,39.6,37.5,30.32,South,189,0.0,0.0,92,0.00,,,0.00,Wunderground v.1.15,2013-11-04 07:13:00,
2013-11-04 02:14:00,39.6,37.5,30.32,South,189,0.0,0.0,92,0.00,,,0.00,Wunderground v.1.15,2013-11-04 07:14:00,
2013-11-04 02:15:00,39.6,37.5,30.32,South,189,0.0,0.0,92,0.00,,,0.00,Wunderground v.1.15,2013-11-04 07:15:00,
2013-11-04 02:18:00,39.6,37.5,30.32,South,189,0.0,0.0,92,0.00,,,0.00,Wunderground v.1.15,2013-11-04 07:18:00,
2013-11-04 02:19:00,39.4,37.3,30.32,South,189,0.0,0.0,92,0.00,,,0.00,Wunderground v.1.15,2013-11-04 07:19:00,
2013-11-04 02:20:00,39.4,37.3,30.32,South,189,0.0,0.0,92,0.00,,,0.00,Wunderground v.1.15,2013-11-04 07:20:00,
2013-11-04 02:24:00,39.3,37.2,30.32,South,189,0.0,0.0,92,0.00,,,0.00,Wunderground v.1.15,2013-11-04 07:24:00,
2013-11-04 02:26:00,39.3,37.2,30.32,South,189,0.0,0.0,92,0.00,,,0.00,Wunderground v.1.15,2013-11-04 07:26:00,
2013-11-04 02:28:00,39.1,37.0,30.32,South,189,0.0,0.0,92,0.00,,,0.00,Wunderground v.1.15,2013-11-04 07:28:00,
2013-11-04 02:30:00,39.1,37.0,30.31,South,189,0.0,0.0,92,0.00,,,0.00,Wunderground v.1.15,2013-11-04 07:30:00,
2013-11-04 02:31:00,39.1,37.0,30.31,South,189,0.0,0.0,92,0.00,,,0.00,Wunderground v.1.15,2013-11-04 07:31:00,
2013-11-04 02:32:00,39.1,37.0,30.31,South,189,0.0,0.0,92,0.00,,,0.00,Wunderground v.1.15,2013-11-04 07:32:00,
2013-11-04 02:33:00,39.1,37.0,30.31,South,189,0.0,0.0,92,0.00,,,0.00,Wunderground v.1.15,2013-11-04 07:33:00,
2013-11-04 02:35:00,39.1,37.0,30.31,South,189,0.0,0.0,92,0.00,,,0.00,Wunderground v.1.15,2013-11-04 07:35:00,
2013-11-04 02:38:00,39.1,37.0,30.31,South,189,0.0,0.0,92,0.00,,,0.00,Wunderground v.1.15,2013-11-04 07:38:00,
2013-11-04 02:41:00,39.1,37.0,30.31,South,189,0.0,0.0,92,0.00,,,0.00,Wunderground v.1.15,2013-11-04 07:41:00,
2013-11-04 02:42:00,39.3,37.2,30.31,South,189,0.0,0.0,92,0.00,,,0.00,Wunderground v.1.15,2013-11-04 07:42:00,
2013-11-04 02:45:00,39.4,37.3,30.31,South,189,0.0,0.0,92,0.00,,,0.00,Wunderground v.1.15,2013-11-04 07:45:00,
2013-11-04 02:46:00,39.4,37.3,30.31,South,189,0.0,0.0,92,0.00,,,0.00,Wunderground v.1.15,2013-11-04 07:46:00,
2013-11-04 02:47:00,39.6,37.5,30.31,South,189,0.0,0.0,92,0.00,,,0.00,Wunderground v.1.15,2013-11-04 07:47:00,
2013-11-04 02:48:00,39.6,37.5,30.31,South,189,0.0,0.0,92,0.00,,,0.00,Wunderground v.1.15,2013-11-04 07:48:00,
2013-11-04 02:51:00,39.7,37.6,30.31,South,189,0.0,0.0,92,0.00,,,0.00,Wunderground v.1.15,2013-11-04 07:51:00,
2013-11-04 02:52:00,39.8,37.7,30.31,South,189,0.0,0.0,92,0.00,,,0.00,Wunderground v.1.15,2013-11-04 07:52:00,
2013-11-04 02:54:00,40.0,37.9,30.31,South,189,0.0,0.0,92,0.00,,,0.00,Wunderground v.1.15,2013-11-04 07:54:00,
2013-11-04 02:55:00,40.1,38.0,30.31,South,189,0.0,0.0,92,0.00,,,0.00,Wunderground v.1.15,2013-11-04 07:55:00,
2013-11-04 02:59:00,40.4,37.7,30.31,South,189,0.0,0.0,90,0.00,,,0.00,Wunderground v.1.15,2013-11-04 07:59:00,
2013-11-04 03:00:00,40.4,37.7,30.32,South,189,0.0,0.0,90,0.00,,,0.00,Wunderground v.1.15,2013-11-04 08:00:00,
2013-11-04 03:01:00,40.3,37.6,30.32,South,189,0.0,0.0,90,0.00,,,0.00,Wunderground v.1.15,2013-11-04 08:01:00,
2013-11-04 03:02:00,40.3,37.6,30.32,South,189,0.0,0.0,90,0.00,,,0.00,Wunderground v.1.15,2013-11-04 08:02:00,
2013-11-04 03:06:00,40.3,37.6,30.32,South,189,0.0,0.0,90,0.00,,,0.00,Wunderground v.1.15,2013-11-04 08:06:00,
2013-11-04 03:08:00,40.1,37.4,30.32,South,189,0.0,0.0,90,0.00,,,0.00,Wunderground v.1.15,2013-11-04 08:08:00,
2013-11-04 03:10:00,40.1,37.4,30.32,South,189,0.0,0.0,90,0.00,,,0.00,Wunderground v.1.15,2013-11-04 08:10:00,
2013-11-04 03:11:00,40.1,37.4,30.32,South,189,0.0,0.0,90,0.00,,,0.00,Wunderground v.1.15,2013-11-04 08:11:00,
2013-11-04 03:14:00,40.1,37.4,30.32,South,189,0.0,0.0,90,0.00,,,0.00,Wunderground v.1.15,2013-11-04 08:14:00,
2013-11-04 03:15:00,40.0,37.3,30.32,South,189,0.0,0.0,90,0.00,,,0.00,Wunderground v.1.15,2013-11-04 08:15:00,
2013-11-04 03:16:00,40.0,37.3,30.32,South,189,0.0,0.0,90,0.00,,,0.00,Wunderground v.1.15,2013-11-04 08:16:00,
2013-11-04 03:18:00,40.0,37.6,30.32,South,189,0.0,0.0,91,0.00,,,0.00,Wunderground v.1.15,2013-11-04 08:18:00,
2013-11-04 03:21:00,40.0,37.6,30.32,South,189,0.0,0.0,91,0.00,,,0.00,Wunderground v.1.15,2013-11-04 08:21:00,
2013-11-04 03:24:00,39.8,37.4,30.32,South,189,0.0,0.0,91,0.00,,,0.00,Wunderground v.1.15,2013-11-04 08:24:00,
2013-11-04 03:25:00,39.8,37.4,30.32,South,189,0.0,0.0,91,0.00,,,0.00,Wunderground v.1.15,2013-11-04 08:25:00,
2013-11-04 03:26:00,39.8,37.4,30.32,South,189,0.0,0.0,91,0.00,,,0.00,Wunderground v.1.15,2013-11-04 08:26:00,
2013-11-04 03:30:00,39.7,37.3,30.32,South,189,0.0,0.0,91,0.00,,,0.00,Wunderground v.1.15,2013-11-04 08:30:00,
2013-11-04 03:31:00,39.7,37.3,30.32,South,189,0.0,0.0,91,0.00,,,0.00,Wunderground v.1.15,2013-11-04 08:31:00,
2013-11-04 03:32:00,39.6,37.5,30.32,South,189,0.0,0.0,92,0.00,,,0.00,Wunderground v.1.15,2013-11-04 08:32:00,
2013-11-04 03:33:00,39.6,37.5,30.32,South,189,0.0,0.0,92,0.00,,,0.00,Wunderground v.1.15,2013-11-04 08:33:00,
2013-11-04 03:35:00,39.6,37.5,30.32,South,189,0.0,0.0,92,0.00,,,0.00,Wunderground v.1.15,2013-11-04 08:35:00,
2013-11-04 03:36:00,39.4,37.3,30.32,South,189,0.0,0.0,92,0.00,,,0.00,Wunderground v.1.15,2013-11-04 08:36:00,
2013-11-04 03:39:00,39.3,37.2,30.32,South,189,0.0,0.0,92,0.00,,,0.00,Wunderground v.1.15,2013-11-04 08:39:00,
2013-11-04 03:41:00,39.1,37.0,30.32,South,189,0.0,0.0,92,0.00,,,0.00,Wunderground v.1.15,2013-11-04 08:41:00,
2013-11-04 03:42:00,39.1,37.0,30.32,South,189,0.0,0.0,92,0.00,,,0.00,Wunderground v.1.15,2013-11-04 08:42:00,
2013-11-04 03:43:00,39.1,37.0,30.32,South,189,0.0,0.0,92,0.00,,,0.00,Wunderground v.1.15,2013-11-04 08:43:00,
2013-11-04 03:47:00,39.0,36.9,30.32,South,189,0.0,0.0,92,0.00,,,0.00,Wunderground v.1.15,2013-11-04 08:47:00,
2013-11-04 03:49:00,38.8,36.7,30.32,South,189,0.0,0.0,92,0.00,,,0.00,Wunderground v.1.15,2013-11-04 08:49:00,
2013-11-04 03:50:00,38.8,36.7,30.32,South,189,0.0,0.0,92,0.00,,,0.00,Wunderground v.1.15,2013-11-04 08:50:00,
2013-11-04 03:51:00,38.8,36.7,30.32,South,189,0.0,0.0,92,0.00,,,0.00,Wunderground v.1.15,2013-11-04 08:51:00,
2013-11-04 03:52:00,38.8,36.7,30.32,South,189,0.0,0.0,92,0.00,,,0.00,Wunderground v.1.15,2013-11-04 08:52:00,
2013-11-04 03:55:00,38.7,36.6,30.32,South,189,0.0,0.0,92,0.00,,,0.00,Wunderground v.1.15,2013-11-04 08:55:00,
2013-11-04 03:58:00,38.7,36.6,30.32,South,189,0.0,0.0,92,0.00,,,0.00,Wunderground v.1.15,2013-11-04 08:58:00,
2013-11-04 04:01:00,38.5,36.7,30.31,South,189,0.0,0.0,93,0.00,,,0.00,Wunderground v.1.15,2013-11-04 09:01:00,
2013-11-04 04:03:00,38.5,36.7,30.31,South,189,0.0,0.0,93,0.00,,,0.00,Wunderground v.1.15,2013-11-04 09:03:00,
2013-11-04 04:04:00,38.5,36.7,30.31,South,189,0.0,0.0,93,0.00,,,0.00,Wunderground v.1.15,2013-11-04 09:04:00,
2013-11-04 04:06:00,38.5,36.7,30.31,South,189,0.0,0.0,93,0.00,,,0.00,Wunderground v.1.15,2013-11-04 09:06:00,
2013-11-04 04:07:00,38.5,36.7,30.31,South,189,0.0,0.0,93,0.00,,,0.00,Wunderground v.1.15,2013-11-04 09:07:00,
2013-11-04 04:10:00,38.7,36.9,30.31,South,189,0.0,0.0,93,0.00,,,0.00,Wunderground v.1.15,2013-11-04 09:10:00,
2013-11-04 04:12:00,38.7,36.9,30.31,South,189,0.0,0.0,93,0.00,,,0.00,Wunderground v.1.15,2013-11-04 09:12:00,
2013-11-04 04:13:00,38.8,36.9,30.31,South,189,0.0,0.0,93,0.00,,,0.00,Wunderground v.1.15,2013-11-04 09:13:00,
2013-11-04 04:15:00,38.8,36.9,30.31,South,189,0.0,0.0,93,0.00,,,0.00,Wunderground v.1.15,2013-11-04 09:15:00,
2013-11-04 04:17:00,39.0,37.1,30.31,South,189,0.0,0.0,93,0.00,,,0.00,Wunderground v.1.15,2013-11-04 09:17:00,
2013-11-04 04:18:00,39.0,37.1,30.31,South,189,0.0,0.0,93,0.00,,,0.00,Wunderground v.1.15,2013-11-04 09:18:00,
2013-11-04 04:20:00,39.0,37.1,30.31,South,189,0.0,0.0,93,0.00,,,0.00,Wunderground v.1.15,2013-11-04 09:20:00,
2013-11-04 04:23:00,39.0,37.1,30.31,South,189,0.0,0.0,93,0.00,,,0.00,Wunderground v.1.15,2013-11-04 09:23:00,
2013-11-04 04:25:00,39.1,37.2,30.31,South,189,0.0,0.0,93,0.00,,,0.00,Wunderground v.1.15,2013-11-04 09:25:00,
2013-11-04 04:26:00,39.1,37.2,30.31,South,189,0.0,0.0,93,0.00,,,0.00,Wunderground v.1.15,2013-11-04 09:26:00,
2013-11-04 04:27:00,39.1,37.2,30.31,South,189,0.0,0.0,93,0.00,,,0.00,Wunderground v.1.15,2013-11-04 09:27:00,
2013-11-04 04:30:00,39.0,36.9,30.32,South,189,0.0,0.0,92,0.00,,,0.00,Wunderground v.1.15,2013-11-04 09:30:00,
2013-11-04 04:34:00,39.0,36.9,30.32,South,189,0.0,0.0,92,0.00,,,0.00,Wunderground v.1.15,2013-11-04 09:34:00,
2013-11-04 04:35:00,39.0,36.9,30.32,South,189,0.0,0.0,92,0.00,,,0.00,Wunderground v.1.15,2013-11-04 09:35:00,
2013-11-04 04:36:00,39.0,36.9,30.32,South,189,0.0,0.0,92,0.00,,,0.00,Wunderground v.1.15,2013-11-04 09:36:00,
2013-11-04 04:37:00,39.0,36.9,30.32,South,189,0.0,0.0,92,0.00,,,0.00,Wunderground v.1.15,2013-11-04 09:37:00,
2013-11-04 04:40:00,39.0,36.9,30.32,South,189,0.0,0.0,92,0.00,,,0.00,Wunderground v.1.15,2013-11-04 09:40:00,
2013-11-04 04:41:00,39.0,36.9,30.32,South,189,0.0,0.0,92,0.00,,,0.00,Wunderground v.1.15,2013-11-04 09:41:00,
2013-11-04 04:42:00,39.0,36.9,30.32,South,189,0.0,0.0,92,0.00,,,0.00,Wunderground v.1.15,2013-11-04 09:42:00,
2013-11-04 04:43:00,39.0,37.1,30.32,South,189,0.0,0.0,93,0.00,,,0.00,Wunderground v.1.15,2013-11-04 09:43:00,
2013-11-04 04:45:00,39.1,37.2,30.32,South,189,0.0,0.0,93,0.00,,,0.00,Wunderground v.1.15,2013-11-04 09:45:00,
2013-11-04 04:49:00,39.1,37.0,30.32,South,189,0.0,0.0,92,0.00,,,0.00,Wunderground v.1.15,2013-11-04 09:49:00,
2013-11-04 04:50:00,39.1,37.0,30.32,South,189,0.0,0.0,92,0.00,,,0.00,Wunderground v.1.15,2013-11-04 09:50:00,
2013-11-04 04:54:00,39.1,37.0,30.32,South,189,0.0,0.0,92,0.00,,,0.00,Wunderground v.1.15,2013-11-04 09:54:00,
2013-11-04 04:55:00,39.1,37.0,30.32,South,189,0.0,0.0,92,0.00,,,0.00,Wunderground v.1.15,2013-11-04 09:55:00,
2013-11-04 04:59:00,38.8,36.7,30.32,South,189,0.0,0.0,92,0.00,,,0.00,Wunderground v.1.15,2013-11-04 09:59:00,
2013-11-04 05:00:00,38.8,36.7,30.32,South,189,0.0,0.0,92,0.00,,,0.00,Wunderground v.1.15,2013-11-04 10:00:00,
2013-11-04 05:01:00,38.7,36.6,30.32,South,189,0.0,0.0,92,0.00,,,0.00,Wunderground v.1.15,2013-11-04 10:01:00,
2013-11-04 05:05:00,38.4,36.3,30.32,South,189,0.0,0.0,92,0.00,,,0.00,Wunderground v.1.15,2013-11-04 10:05:00,
2013-11-04 05:06:00,38.4,36.3,30.32,South,189,0.0,0.0,92,0.00,,,0.00,Wunderground v.1.15,2013-11-04 10:06:00,
2013-11-04 05:07:00,38.3,36.2,30.32,South,189,0.0,0.0,92,0.00,,,0.00,Wunderground v.1.15,2013-11-04 10:07:00,
2013-11-04 05:08:00,38.3,36.5,30.32,South,189,0.0,0.0,93,0.00,,,0.00,Wunderground v.1.15,2013-11-04 10:08:00,
2013-11-04 05:09:00,38.3,36.5,30.32,South,189,0.0,0.0,93,0.00,,,0.00,Wunderground v.1.15,2013-11-04 10:09:00,
2013-11-04 05:11:00,38.1,36.3,30.32,South,189,0.0,0.0,93,0.00,,,0.00,Wunderground v.1.15,2013-11-04 10:11:00,
2013-11-04 05:12:00,38.1,36.3,30.32,South,189,0.0,0.0,93,0.00,,,0.00,Wunderground v.1.15,2013-11-04 10:12:00,
2013-11-04 05:14:00,38.1,36.3,30.32,South,189,0.0,0.0,93,0.00,,,0.00,Wunderground v.1.15,2013-11-04 10:14:00,
2013-11-04 05:15:00,38.0,36.2,30.33,South,189,0.0,0.0,93,0.00,,,0.00,Wunderground v.1.15,2013-11-04 10:15:00,
2013-11-04 05:16:00,38.0,36.2,30.33,South,189,0.0,0.0,93,0.00,,,0.00,Wunderground v.1.15,2013-11-04 10:16:00,
2013-11-04 05:17:00,38.0,36.2,30.33,South,189,0.0,0.0,93,0.00,,,0.00,Wunderground v.1.15,2013-11-04 10:17:00,
2013-11-04 05:21:00,37.8,36.2,30.33,South,189,0.0,0.0,94,0.00,,,0.00,Wunderground v.1.15,2013-11-04 10:21:00,
2013-11-04 05:22:00,37.8,36.2,30.33,South,189,0.0,0.0,94,0.00,,,0.00,Wunderground v.1.15,2013-11-04 10:22:00,
2013-11-04 05:23:00,37.7,36.1,30.33,South,189,0.0,0.0,94,0.00,,,0.00,Wunderground v.1.15,2013-11-04 10:23:00,
2013-11-04 05:24:00,37.7,36.1,30.33,South,189,0.0,0.0,94,0.00,,,0.00,Wunderground v.1.15,2013-11-04 10:24:00,
2013-11-04 05:28:00,37.7,36.1,30.33,South,189,0.0,0.0,94,0.00,,,0.00,Wunderground v.1.15,2013-11-04 10:28:00,
2013-11-04 05:31:00,37.7,36.1,30.33,South,189,0.0,0.0,94,0.00,,,0.00,Wunderground v.1.15,2013-11-04 10:31:00,
2013-11-04 05:34:00,37.7,36.1,30.33,South,189,0.0,0.0,94,0.00,,,0.00,Wunderground v.1.15,2013-11-04 10:34:00,
2013-11-04 05:35:00,37.5,35.9,30.33,South,189,0.0,0.0,94,0.00,,,0.00,Wunderground v.1.15,2013-11-04 10:35:00,
2013-11-04 05:36:00,37.5,35.9,30.33,South,189,0.0,0.0,94,0.00,,,0.00,Wunderground v.1.15,2013-11-04 10:36:00,
2013-11-04 05:37:00,37.5,35.9,30.33,South,189,0.0,0.0,94,0.00,,,0.00,Wunderground v.1.15,2013-11-04 10:37:00,
2013-11-04 05:38:00,37.5,35.9,30.33,South,189,0.0,0.0,94,0.00,,,0.00,Wunderground v.1.15,2013-11-04 10:38:00,
2013-11-04 05:39:00,37.5,35.9,30.33,South,189,0.0,0.0,94,0.00,,,0.00,Wunderground v.1.15,2013-11-04 10:39:00,
2013-11-04 05:40:00,37.4,35.8,30.33,South,189,0.0,0.0,94,0.00,,,0.00,Wunderground v.1.15,2013-11-04 10:40:00,
2013-11-04 05:42:00,37.4,36.1,30.33,South,189,0.0,0.0,95,0.00,,,0.00,Wunderground v.1.15,2013-11-04 10:42:00,
2013-11-04 05:45:00,37.5,36.2,30.33,South,189,0.0,0.0,95,0.00,,,0.00,Wunderground v.1.15,2013-11-04 10:45:00,
2013-11-04 05:46:00,37.5,36.2,30.33,South,189,0.0,0.0,95,0.00,,,0.00,Wunderground v.1.15,2013-11-04 10:46:00,
2013-11-04 05:48:00,37.7,36.4,30.33,South,189,0.0,0.0,95,0.00,,,0.00,Wunderground v.1.15,2013-11-04 10:48:00,
2013-11-04 05:49:00,37.7,36.4,30.33,South,189,0.0,0.0,95,0.00,,,0.00,Wunderground v.1.15,2013-11-04 10:49:00,
2013-11-04 05:52:00,37.8,36.5,30.33,South,189,0.0,0.0,95,0.00,,,0.00,Wunderground v.1.15,2013-11-04 10:52:00,
2013-11-04 05:53:00,37.8,36.5,30.33,South,189,0.0,0.0,95,0.00,,,0.00,Wunderground v.1.15,2013-11-04 10:53:00,
2013-11-04 05:56:00,38.0,36.7,30.33,South,189,0.0,0.0,95,0.00,,,0.00,Wunderground v.1.15,2013-11-04 10:56:00,
2013-11-04 05:57:00,38.0,36.7,30.33,South,189,0.0,0.0,95,0.00,,,0.00,Wunderground v.1.15,2013-11-04 10:57:00,
2013-11-04 06:00:00,38.1,36.5,30.33,South,189,0.0,0.0,94,0.00,,,0.00,Wunderground v.1.15,2013-11-04 11:00:00,
2013-11-04 06:01:00,38.1,36.5,30.33,South,189,0.0,0.0,94,0.00,,,0.00,Wunderground v.1.15,2013-11-04 11:01:00,
2013-11-04 06:02:00,38.0,36.4,30.33,South,189,0.0,0.0,94,0.00,,,0.00,Wunderground v.1.15,2013-11-04 11:02:00,
2013-11-04 06:04:00,38.1,36.5,30.33,South,189,0.0,0.0,94,0.00,,,0.00,Wunderground v.1.15,2013-11-04 11:04:00,
2013-11-04 06:07:00,38.0,36.4,30.33,South,189,0.0,0.0,94,0.00,,,0.00,Wunderground v.1.15,2013-11-04 11:07:00,
2013-11-04 06:08:00,38.0,36.4,30.33,South,189,0.0,0.0,94,0.00,,,0.00,Wunderground v.1.15,2013-11-04 11:08:00,
2013-11-04 06:09:00,38.0,36.4,30.33,South,189,0.0,0.0,94,0.00,,,0.00,Wunderground v.1.15,2013-11-04 11:09:00,
2013-11-04 06:11:00,37.8,36.0,30.33,South,189,0.0,0.0,93,0.00,,,0.00,Wunderground v.1.15,2013-11-04 11:11:00,
2013-11-04 06:13:00,37.8,36.2,30.33,South,189,0.0,0.0,94,0.00,,,0.00,Wunderground v.1.15,2013-11-04 11:13:00,
2013-11-04 06:18:00,38.0,36.4,30.33,South,189,0.0,0.0,94,0.00,,,0.00,Wunderground v.1.15,2013-11-04 11:18:00,
2013-11-04 06:19:00,38.0,36.4,30.33,South,189,0.0,0.0,94,0.00,,,0.00,Wunderground v.1.15,2013-11-04 11:19:00,
2013-11-04 06:20:00,38.0,36.4,30.33,South,189,0.0,0.0,94,0.00,,,0.00,Wunderground v.1.15,2013-11-04 11:20:00,
2013-11-04 06:21:00,38.0,36.4,30.33,South,189,0.0,0.0,94,0.00,,,0.00,Wunderground v.1.15,2013-11-04 11:21:00,
2013-11-04 06:23:00,38.0,36.2,30.33,South,189,0.0,0.0,93,0.00,,,0.00,Wunderground v.1.15,2013-11-04 11:23:00,
2013-11-04 06:25:00,38.0,36.2,30.33,South,189,0.0,0.0,93,0.00,,,0.00,Wunderground v.1.15,2013-11-04 11:25:00,
2013-11-04 06:27:00,38.0,36.4,30.33,South,189,0.0,0.0,94,0.00,,,0.00,Wunderground v.1.15,2013-11-04 11:27:00,
2013-11-04 06:30:00,38.0,36.2,30.34,South,189,0.0,0.0,93,0.00,,,0.00,Wunderground v.1.15,2013-11-04 11:30:00,
2013-11-04 06:32:00,37.8,36.0,30.34,South,189,0.0,0.0,93,0.00,,,0.00,Wunderground v.1.15,2013-11-04 11:32:00,
2013-11-04 06:33:00,37.8,36.0,30.34,South,189,0.0,0.0,93,0.00,,,0.00,Wunderground v.1.15,2013-11-04 11:33:00,
2013-11-04 06:34:00,37.7,35.9,30.34,South,189,0.0,0.0,93,0.00,,,0.00,Wunderground v.1.15,2013-11-04 11:34:00,
2013-11-04 06:38:00,37.4,35.6,30.34,South,189,0.0,0.0,93,0.00,,,0.00,Wunderground v.1.15,2013-11-04 11:38:00,
2013-11-04 06:39:00,37.3,35.5,30.34,South,189,0.0,0.0,93,0.00,,,0.00,Wunderground v.1.15,2013-11-04 11:39:00,
2013-11-04 06:40:00,37.1,35.3,30.34,South,189,0.0,0.0,93,0.00,,,0.00,Wunderground v.1.15,2013-11-04 11:40:00,
2013-11-04 06:42:00,37.1,35.5,30.34,South,189,0.0,0.0,94,0.00,,,0.00,Wunderground v.1.15,2013-11-04 11:42:00,
2013-11-04 06:44:00,37.3,36.0,30.34,South,189,0.0,0.0,95,0.00,,,0.00,Wunderground v.1.15,2013-11-04 11:44:00,
2013-11-04 06:46:00,37.4,36.1,30.33,South,189,0.0,0.0,95,0.00,,,0.00,Wunderground v.1.15,2013-11-04 11:46:00,
2013-11-04 06:47:00,37.4,36.1,30.33,South,189,0.0,0.0,95,0.00,,,0.00,Wunderground v.1.15,2013-11-04 11:47:00,
2013-11-04 06:48:00,37.5,35.9,30.33,South,189,0.0,0.0,94,0.00,,,0.00,Wunderground v.1.15,2013-11-04 11:48:00,
2013-11-04 06:50:00,37.5,35.9,30.33,South,189,0.0,0.0,94,0.00,,,0.00,Wunderground v.1.15,2013-11-04 11:50:00,
2013-11-04 06:54:00,38.0,36.4,30.33,South,189,0.0,0.0,94,0.00,,,0.00,Wunderground v.1.15,2013-11-04 11:54:00,
2013-11-04 06:55:00,38.0,36.4,30.33,South,189,0.0,0.0,94,0.00,,,0.00,Wunderground v.1.15,2013-11-04 11:55:00,
2013-11-04 06:57:00,38.3,36.7,30.33,South,189,0.0,0.0,94,0.00,,,0.00,Wunderground v.1.15,2013-11-04 11:57:00,
2013-11-04 07:00:00,38.4,36.6,30.34,South,189,0.0,0.0,93,0.00,,,0.00,Wunderground v.1.15,2013-11-04 12:00:00,
2013-11-04 07:02:00,38.4,36.6,30.34,South,189,0.0,0.0,93,0.00,,,0.00,Wunderground v.1.15,2013-11-04 12:02:00,
2013-11-04 07:04:00,38.5,36.7,30.34,South,189,0.0,0.0,93,0.00,,,0.00,Wunderground v.1.15,2013-11-04 12:04:00,
2013-11-04 07:05:00,38.5,36.7,30.34,South,189,0.0,0.0,93,0.00,,,0.00,Wunderground v.1.15,2013-11-04 12:05:00,
2013-11-04 07:06:00,38.5,36.7,30.34,South,189,0.0,0.0,93,0.00,,,0.00,Wunderground v.1.15,2013-11-04 12:06:00,
2013-11-04 07:08:00,38.5,36.4,30.34,South,189,0.0,0.0,92,0.00,,,0.00,Wunderground v.1.15,2013-11-04 12:08:00,
2013-11-04 07:09:00,38.5,36.4,30.34,South,189,0.0,0.0,92,0.00,,,0.00,Wunderground v.1.15,2013-11-04 12:09:00,
2013-11-04 07:10:00,38.5,36.4,30.34,South,189,0.0,0.0,92,0.00,,,0.00,Wunderground v.1.15,2013-11-04 12:10:00,
2013-11-04 07:11:00,38.5,36.4,30.34,SSE,148,0.0,0.0,92,0.00,,,0.00,Wunderground v.1.15,2013-11-04 12:11:00,
2013-11-04 07:14:00,38.5,36.4,30.34,SSE,148,0.0,0.0,92,0.00,,,0.00,Wunderground v.1.15,2013-11-04 12:14:00,
2013-11-04 07:15:00,38.5,36.4,30.34,SSE,148,0.0,0.0,92,0.00,,,0.00,Wunderground v.1.15,2013-11-04 12:15:00,
2013-11-04 07:18:00,38.5,36.4,30.34,SSE,148,0.0,0.0,92,0.00,,,0.00,Wunderground v.1.15,2013-11-04 12:18:00,
2013-11-04 07:19:00,38.5,36.4,30.34,SSE,148,0.0,0.0,92,0.00,,,0.00,Wunderground v.1.15,2013-11-04 12:19:00,
2013-11-04 07:20:00,38.7,36.6,30.34,SE,140,0.0,0.0,92,0.00,,,0.00,Wunderground v.1.15,2013-11-04 12:20:00,
2013-11-04 07:22:00,38.7,36.6,30.34,SE,140,0.0,0.0,92,0.00,,,0.00,Wunderground v.1.15,2013-11-04 12:22:00,
2013-11-04 07:26:00,38.7,36.6,30.34,SE,140,0.0,0.0,92,0.00,,,0.00,Wunderground v.1.15,2013-11-04 12:26:00,
2013-11-04 07:27:00,38.7,36.6,30.34,SE,140,0.0,0.0,92,0.00,,,0.00,Wunderground v.1.15,2013-11-04 12:27:00,
2013-11-04 07:30:00,38.7,36.6,30.35,SE,140,0.0,0.0,92,0.00,,,0.00,Wunderground v.1.15,2013-11-04 12:30:00,
2013-11-04 07:32:00,38.7,36.6,30.35,SE,140,0.0,0.0,92,0.00,,,0.00,Wunderground v.1.15,2013-11-04 12:32:00,
2013-11-04 07:33:00,38.7,36.6,30.35,SE,140,0.0,0.0,92,0.00,,,0.00,Wunderground v.1.15,2013-11-04 12:33:00,
2013-11-04 07:34:00,38.7,36.6,30.35,SE,140,0.0,0.0,92,0.00,,,0.00,Wunderground v.1.15,2013-11-04 12:34:00,
2013-11-04 07:37:00,38.8,36.7,30.35,SE,140,0.0,0.0,92,0.00,,,0.00,Wunderground v.1.15,2013-11-04 12:37:00,
2013-11-04 07:39:00,39.0,36.9,30.35,SE,140,0.0,0.0,92,0.00,,,0.00,Wunderground v.1.15,2013-11-04 12:39:00,
2013-11-04 07:40:00,39.0,36.9,30.35,SE,140,0.0,0.0,92,0.00,,,0.00,Wunderground v.1.15,2013-11-04 12:40:00,
2013-11-04 07:43:00,39.1,37.0,30.35,SE,140,0.0,0.0,92,0.00,,,0.00,Wunderground v.1.15,2013-11-04 12:43:00,
2013-11-04 07:44:00,39.1,37.0,30.35,SE,140,0.0,0.0,92,0.00,,,0.00,Wunderground v.1.15,2013-11-04 12:44:00,
2013-11-04 07:45:00,39.1,37.0,30.36,SE,140,0.0,0.0,92,0.00,,,0.00,Wunderground v.1.15,2013-11-04 12:45:00,
2013-11-04 07:48:00,39.1,37.0,30.36,SE,140,0.0,0.0,92,0.00,,,0.00,Wunderground v.1.15,2013-11-04 12:48:00,
2013-11-04 07:49:00,39.1,37.0,30.36,SE,140,0.0,0.0,92,0.00,,,0.00,Wunderground v.1.15,2013-11-04 12:49:00,
2013-11-04 07:50:00,39.1,37.0,30.36,SE,140,0.0,0.0,92,0.00,,,0.00,Wunderground v.1.15,2013-11-04 12:50:00,
2013-11-04 07:51:00,39.1,37.0,30.36,SE,140,0.0,0.0,92,0.00,,,0.00,Wunderground v.1.15,2013-11-04 12:51:00,
2013-11-04 07:53:00,39.1,37.0,30.36,SE,140,0.0,0.0,92,0.00,,,0.00,Wunderground v.1.15,2013-11-04 12:53:00,
2013-11-04 07:55:00,39.1,37.0,30.36,SE,140,0.0,0.0,92,0.00,,,0.00,Wunderground v.1.15,2013-11-04 12:55:00,
2013-11-04 07:57:00,39.3,37.2,30.36,SE,134,0.0,2.0,92,0.00,,,0.00,Wunderground v.1.15,2013-11-04 12:57:00,
2013-11-04 07:58:00,39.4,37.3,30.36,SE,134,0.0,2.0,92,0.00,,,0.00,Wunderground v.1.15,2013-11-04 12:58:00,
2013-11-04 07:59:00,39.4,37.3,30.36,SE,134,0.0,2.0,92,0.00,,,0.00,Wunderground v.1.15,2013-11-04 12:59:00,
2013-11-04 08:01:00,39.7,37.6,30.33,SE,134,1.0,2.0,92,0.00,,,0.00,Wunderground v.1.15,2013-11-04 13:01:00,
2013-11-04 08:04:00,40.0,37.9,30.33,SE,126,1.0,2.0,92,0.00,,,0.00,Wunderground v.1.15,2013-11-04 13:04:00,
2013-11-04 08:05:00,40.0,37.6,30.33,ESE,103,1.0,2.0,91,0.00,,,0.00,Wunderground v.1.15,2013-11-04 13:05:00,
2013-11-04 08:09:00,40.4,38.0,30.33,ESE,102,2.0,2.0,91,0.00,,,0.00,Wunderground v.1.15,2013-11-04 13:09:00,
2013-11-04 08:10:00,40.4,38.0,30.33,ESE,102,2.0,2.0,91,0.00,,,0.00,Wunderground v.1.15,2013-11-04 13:10:00,
2013-11-04 08:11:00,40.4,38.0,30.33,ESE,102,2.0,2.0,91,0.00,,,0.00,Wunderground v.1.15,2013-11-04 13:11:00,
2013-11-04 08:14:00,40.7,38.0,30.33,ESE,102,1.0,2.0,90,0.00,,,0.00,Wunderground v.1.15,2013-11-04 13:14:00,
2013-11-04 08:15:00,40.7,38.0,30.34,ESE,102,1.0,2.0,90,0.00,,,0.00,Wunderground v.1.15,2013-11-04 13:15:00,
2013-11-04 08:20:00,41.1,38.4,30.34,ESE,102,0.0,0.0,90,0.00,,,0.00,Wunderground v.1.15,2013-11-04 13:20:00,
2013-11-04 08:21:00,41.1,38.4,30.34,ESE,102,0.0,0.0,90,0.00,,,0.00,Wunderground v.1.15,2013-11-04 13:21:00,
2013-11-04 08:25:00,41.4,38.4,30.34,ESE,102,0.0,0.0,89,0.00,,,0.00,Wunderground v.1.15,2013-11-04 13:25:00,
2013-11-04 08:26:00,41.4,38.4,30.34,ESE,102,0.0,0.0,89,0.00,,,0.00,Wunderground v.1.15,2013-11-04 13:26:00,
2013-11-04 08:27:00,41.6,38.6,30.34,ESE,102,0.0,0.0,89,0.00,,,0.00,Wunderground v.1.15,2013-11-04 13:27:00,
2013-11-04 08:31:00,41.7,38.7,30.37,ESE,102,0.0,0.0,89,0.00,,,0.00,Wunderground v.1.15,2013-11-04 13:31:00,
2013-11-04 08:32:00,41.7,38.4,30.37,ESE,102,0.0,0.0,88,0.00,,,0.00,Wunderground v.1.15,2013-11-04 13:32:00,
2013-11-04 08:33:00,41.8,38.5,30.37,ESE,102,0.0,0.0,88,0.00,,,0.00,Wunderground v.1.15,2013-11-04 13:33:00,
2013-11-04 08:34:00,41.8,38.5,30.37,ESE,102,0.0,0.0,88,0.00,,,0.00,Wunderground v.1.15,2013-11-04 13:34:00,
2013-11-04 08:37:00,42.0,38.7,30.37,ESE,102,0.0,1.0,88,0.00,,,0.00,Wunderground v.1.15,2013-11-04 13:37:00,
2013-11-04 08:39:00,42.0,38.7,30.37,ESE,102,1.0,1.0,88,0.00,,,0.00,Wunderground v.1.15,2013-11-04 13:39:00,
2013-11-04 08:42:00,42.1,38.8,30.37,ESE,102,1.0,1.0,88,0.00,,,0.00,Wunderground v.1.15,2013-11-04 13:42:00,
2013-11-04 08:43:00,42.1,38.8,30.37,ESE,102,1.0,1.0,88,0.00,,,0.00,Wunderground v.1.15,2013-11-04 13:43:00,
2013-11-04 08:44:00,42.1,38.8,30.37,ESE,102,1.0,1.0,88,0.00,,,0.00,Wunderground v.1.15,2013-11-04 13:44:00,
2013-11-04 08:45:00,42.1,38.8,30.36,ESE,102,1.0,1.0,88,0.00,,,0.00,Wunderground v.1.15,2013-11-04 13:45:00,
2013-11-04 08:47:00,42.1,38.8,30.36,ESE,102,0.0,1.0,88,0.00,,,0.00,Wunderground v.1.15,2013-11-04 13:47:00,
2013-11-04 08:49:00,42.3,39.0,30.36,ESE,102,0.0,1.0,88,0.00,,,0.00,Wunderground v.1.15,2013-11-04 13:49:00,
2013-11-04 08:50:00,42.3,39.0,30.36,ESE,102,0.0,0.0,88,0.00,,,0.00,Wunderground v.1.15,2013-11-04 13:50:00,
2013-11-04 08:51:00,42.4,39.1,30.36,ESE,102,0.0,0.0,88,0.00,,,0.00,Wunderground v.1.15,2013-11-04 13:51:00,
2013-11-04 08:53:00,42.4,38.8,30.36,ESE,102,0.0,0.0,87,0.00,,,0.00,Wunderground v.1.15,2013-11-04 13:53:00,
2013-11-04 08:55:00,42.6,39.0,30.36,ESE,102,0.0,0.0,87,0.00,,,0.00,Wunderground v.1.15,2013-11-04 13:55:00,
2013-11-04 08:58:00,42.7,39.1,30.36,ESE,102,0.0,0.0,87,0.00,,,0.00,Wunderground v.1.15,2013-11-04 13:58:00,
2013-11-04 09:00:00,42.8,39.2,30.36,ESE,102,0.0,0.0,87,0.00,,,0.00,Wunderground v.1.15,2013-11-04 14:00:00,
2013-11-04 09:01:00,42.8,39.2,30.36,ESE,102,0.0,0.0,87,0.00,,,0.00,Wunderground v.1.15,2013-11-04 14:01:00,
2013-11-04 09:02:00,42.8,39.2,30.36,ESE,102,0.0,0.0,87,0.00,,,0.00,Wunderground v.1.15,2013-11-04 14:02:00,
2013-11-04 09:05:00,43.0,39.4,30.36,ESE,102,0.0,0.0,87,0.00,,,0.00,Wunderground v.1.15,2013-11-04 14:05:00,
2013-11-04 09:06:00,43.1,39.5,30.36,ESE,102,0.0,0.0,87,0.00,,,0.00,Wunderground v.1.15,2013-11-04 14:06:00,
2013-11-04 09:07:00,43.1,39.5,30.36,ESE,102,0.0,0.0,87,0.00,,,0.00,Wunderground v.1.15,2013-11-04 14:07:00,
2013-11-04 09:09:00,43.3,39.7,30.36,ESE,102,0.0,0.0,87,0.00,,,0.00,Wunderground v.1.15,2013-11-04 14:09:00,
2013-11-04 09:11:00,43.4,39.8,30.36,ESE,102,0.0,0.0,87,0.00,,,0.00,Wunderground v.1.15,2013-11-04 14:11:00,
2013-11-04 09:12:00,43.4,39.8,30.36,ESE,103,0.0,0.0,87,0.00,,,0.00,Wunderground v.1.15,2013-11-04 14:12:00,
2013-11-04 09:15:00,43.7,40.1,30.35,ESE,103,0.0,0.0,87,0.00,,,0.00,Wunderground v.1.15,2013-11-04 14:15:00,
2013-11-04 09:16:00,43.7,39.8,30.35,ESE,103,0.0,0.0,86,0.00,,,0.00,Wunderground v.1.15,2013-11-04 14:16:00,
2013-11-04 09:17:00,43.8,39.9,30.35,ESE,103,0.0,0.0,86,0.00,,,0.00,Wunderground v.1.15,2013-11-04 14:17:00,
2013-11-04 09:18:00,43.8,39.9,30.35,ESE,103,0.0,0.0,86,0.00,,,0.00,Wunderground v.1.15,2013-11-04 14:18:00,
2013-11-04 09:21:00,44.1,40.2,30.35,ESE,103,0.0,2.0,86,0.00,,,0.00,Wunderground v.1.15,2013-11-04 14:21:00,
2013-11-04 09:22:00,44.1,39.9,30.35,ESE,103,0.0,2.0,85,0.00,,,0.00,Wunderground v.1.15,2013-11-04 14:22:00,
2013-11-04 09:24:00,44.3,40.1,30.35,ESE,103,0.0,2.0,85,0.00,,,0.00,Wunderground v.1.15,2013-11-04 14:24:00,
2013-11-04 09:28:00,44.6,40.4,30.35,ESE,114,0.0,2.0,85,0.00,,,0.00,Wunderground v.1.15,2013-11-04 14:28:00,
2013-11-04 09:29:00,44.7,40.5,30.35,ESE,114,0.0,2.0,85,0.00,,,0.00,Wunderground v.1.15,2013-11-04 14:29:00,
2013-11-04 09:31:00,44.7,40.5,30.35,ESE,114,0.0,0.0,85,0.00,,,0.00,Wunderground v.1.15,2013-11-04 14:31:00,
2013-11-04 09:33:00,45.0,40.8,30.35,SSW,200,0.0,0.0,85,0.00,,,0.00,Wunderground v.1.15,2013-11-04 14:33:00,
2013-11-04 09:34:00,45.1,40.6,30.35,SSE,157,0.0,0.0,84,0.00,,,0.00,Wunderground v.1.15,2013-11-04 14:34:00,
2013-11-04 09:35:00,45.1,40.6,30.35,SE,131,0.0,0.0,84,0.00,,,0.00,Wunderground v.1.15,2013-11-04 14:35:00,
2013-11-04 09:36:00,45.1,40.6,30.35,SE,131,0.0,0.0,84,0.00,,,0.00,Wunderground v.1.15,2013-11-04 14:36:00,
2013-11-04 09:39:00,45.7,40.8,30.35,ESE,114,0.0,2.0,83,0.00,,,0.00,Wunderground v.1.15,2013-11-04 14:39:00,
2013-11-04 09:41:00,45.7,40.8,30.35,SSE,157,0.0,2.0,83,0.00,,,0.00,Wunderground v.1.15,2013-11-04 14:41:00,
2013-11-04 09:42:00,45.7,40.2,30.35,SE,126,1.0,2.0,81,0.00,,,0.00,Wunderground v.1.15,2013-11-04 14:42:00,
2013-11-04 09:44:00,46.6,41.1,30.35,ESE,119,1.0,2.0,81,0.00,,,0.00,Wunderground v.1.15,2013-11-04 14:44:00,
2013-11-04 09:48:00,47.2,41.0,30.35,ESE,112,2.0,5.0,79,0.00,,,0.00,Wunderground v.1.15,2013-11-04 14:48:00,
2013-11-04 09:49:00,47.3,41.1,30.35,ESE,113,2.0,6.0,79,0.00,,,0.00,Wunderground v.1.15,2013-11-04 14:49:00,
2013-11-04 09:51:00,47.3,41.1,30.35,ESE,112,3.0,6.0,79,0.00,,,0.00,Wunderground v.1.15,2013-11-04 14:51:00,
2013-11-04 09:52:00,47.5,41.0,30.35,SSW,202,3.0,6.0,78,0.00,,,0.00,Wunderground v.1.15,2013-11-04 14:52:00,
2013-11-04 09:53:00,47.5,41.0,30.35,SE,133,3.0,6.0,78,0.00,,,0.00,Wunderground v.1.15,2013-11-04 14:53:00,
2013-11-04 09:54:00,47.5,41.0,30.35,SE,130,3.0,6.0,78,0.00,,,0.00,Wunderground v.1.15,2013-11-04 14:54:00,
2013-11-04 09:56:00,47.6,40.7,30.35,SE,133,4.0,6.0,77,0.00,,,0.00,Wunderground v.1.15,2013-11-04 14:56:00,
2013-11-04 09:59:00,47.6,40.4,30.35,SE,136,4.0,6.0,76,0.00,,,0.00,Wunderground v.1.15,2013-11-04 14:59:00,
2013-11-04 10:00:00,47.6,40.4,30.33,SE,124,3.0,5.0,76,0.00,,,0.00,Wunderground v.1.15,2013-11-04 15:00:00,
2013-11-04 10:02:00,47.9,40.7,30.33,ESE,109,3.0,5.0,76,0.00,,,0.00,Wunderground v.1.15,2013-11-04 15:02:00,
2013-11-04 10:05:00,48.1,40.5,30.33,SE,130,3.0,5.0,75,0.00,,,0.00,Wunderground v.1.15,2013-11-04 15:05:00,
2013-11-04 10:06:00,48.1,40.5,30.33,SSE,164,3.0,5.0,75,0.00,,,0.00,Wunderground v.1.15,2013-11-04 15:06:00,
2013-11-04 10:08:00,48.2,40.6,30.33,SSE,148,3.0,5.0,75,0.00,,,0.00,Wunderground v.1.15,2013-11-04 15:08:00,
2013-11-04 10:10:00,48.4,40.8,30.33,South,178,2.0,3.0,75,0.00,,,0.00,Wunderground v.1.15,2013-11-04 15:10:00,
2013-11-04 10:12:00,48.7,41.1,30.33,SSW,203,2.0,3.0,75,0.00,,,0.00,Wunderground v.1.15,2013-11-04 15:12:00,
2013-11-04 10:13:00,48.8,41.2,30.33,SSW,193,2.0,3.0,75,0.00,,,0.00,Wunderground v.1.15,2013-11-04 15:13:00,
2013-11-04 10:14:00,48.8,41.2,30.33,ESE,103,2.0,4.0,75,0.00,,,0.00,Wunderground v.1.15,2013-11-04 15:14:00,
2013-11-04 10:17:00,49.1,41.2,30.35,SSW,195,1.0,4.0,74,0.00,,,0.00,Wunderground v.1.15,2013-11-04 15:17:00,
2013-11-04 10:18:00,49.3,41.4,30.35,ESE,107,1.0,4.0,74,0.00,,,0.00,Wunderground v.1.15,2013-11-04 15:18:00,
2013-11-04 10:20:00,49.4,41.1,30.35,South,191,1.0,1.0,73,0.00,,,0.00,Wunderground v.1.15,2013-11-04 15:20:00,
2013-11-04 10:23:00,49.7,41.4,30.35,SE,137,1.0,2.0,73,0.00,,,0.00,Wunderground v.1.15,2013-11-04 15:23:00,
2013-11-04 10:25:00,49.9,41.9,30.35,SSE,150,1.0,2.0,74,0.00,,,0.00,Wunderground v.1.15,2013-11-04 15:25:00,
2013-11-04 10:26:00,49.9,41.6,30.35,WSW,237,1.0,2.0,73,0.00,,,0.00,Wunderground v.1.15,2013-11-04 15:26:00,
2013-11-04 10:28:00,50.1,42.1,30.35,ESE,117,1.0,2.0,74,0.00,,,0.00,Wunderground v.1.15,2013-11-04 15:28:00,
2013-11-04 10:32:00,50.1,41.4,30.35,ESE,112,1.0,2.0,72,0.00,,,0.00,Wunderground v.1.15,2013-11-04 15:32:00,
2013-11-04 10:33:00,50.1,41.8,30.35,SSE,160,1.0,2.0,73,0.00,,,0.00,Wunderground v.1.15,2013-11-04 15:33:00,
2013-11-04 10:35:00,50.1,41.4,30.35,SSE,160,1.0,2.0,72,0.00,,,0.00,Wunderground v.1.15,2013-11-04 15:35:00,
2013-11-04 10:36:00,50.3,41.6,30.35,SSW,199,2.0,2.0,72,0.00,,,0.00,Wunderground v.1.15,2013-11-04 15:36:00,
2013-11-04 10:37:00,50.4,41.3,30.35,SSW,199,2.0,2.0,71,0.00,,,0.00,Wunderground v.1.15,2013-11-04 15:37:00,
2013-11-04 10:39:00,50.6,41.5,30.35,SSW,210,2.0,2.0,71,0.00,,,0.00,Wunderground v.1.15,2013-11-04 15:39:00,
2013-11-04 10:41:00,50.7,41.6,30.35,SSW,199,2.0,7.0,71,0.00,,,0.00,Wunderground v.1.15,2013-11-04 15:41:00,
2013-11-04 10:43:00,50.9,42.2,30.35,SSW,199,1.0,7.0,72,0.00,,,0.00,Wunderground v.1.15,2013-11-04 15:43:00,
2013-11-04 10:44:00,51.0,42.3,30.35,South,182,1.0,7.0,72,0.00,,,0.00,Wunderground v.1.15,2013-11-04 15:44:00,
2013-11-04 10:45:00,51.0,41.9,30.35,SSW,203,1.0,7.0,71,0.00,,,0.00,Wunderground v.1.15,2013-11-04 15:45:00,
2013-11-04 10:46:00,51.2,41.7,30.35,South,189,1.0,7.0,70,0.00,,,0.00,Wunderground v.1.15,2013-11-04 15:46:00,
2013-11-04 10:47:00,51.3,41.5,30.35,South,186,1.0,7.0,69,0.00,,,0.00,Wunderground v.1.15,2013-11-04 15:47:00,
2013-11-04 10:48:00,51.3,41.8,30.35,South,185,1.0,7.0,70,0.00,,,0.00,Wunderground v.1.15,2013-11-04 15:48:00,
2013-11-04 10:53:00,51.8,41.6,30.35,South,169,1.0,2.0,68,0.00,,,0.00,Wunderground v.1.15,2013-11-04 15:53:00,
2013-11-04 10:54:00,51.8,41.6,30.35,South,181,1.0,6.0,68,0.00,,,0.00,Wunderground v.1.15,2013-11-04 15:54:00,
2013-11-04 10:55:00,51.8,41.6,30.35,South,185,1.0,6.0,68,0.00,,,0.00,Wunderground v.1.15,2013-11-04 15:55:00,
2013-11-04 10:56:00,51.8,41.6,30.35,South,175,2.0,6.0,68,0.00,,,0.00,Wunderground v.1.15,2013-11-04 15:56:00,
2013-11-04 10:57:00,51.9,41.7,30.35,SSW,209,2.0,6.0,68,0.00,,,0.00,Wunderground v.1.15,2013-11-04 15:57:00,
2013-11-04 11:01:00,52.2,42.0,30.35,South,175,2.0,2.0,68,0.00,,,0.00,Wunderground v.1.15,2013-11-04 16:01:00,
2013-11-04 11:02:00,52.2,42.0,30.35,South,191,2.0,4.0,68,0.00,,,0.00,Wunderground v.1.15,2013-11-04 16:02:00,
2013-11-04 11:04:00,52.2,41.6,30.35,SW,217,3.0,4.0,67,0.00,,,0.00,Wunderground v.1.15,2013-11-04 16:04:00,
2013-11-04 11:07:00,52.4,42.1,30.35,South,178,2.0,4.0,68,0.00,,,0.00,Wunderground v.1.15,2013-11-04 16:07:00,
2013-11-04 11:08:00,52.5,42.2,30.35,South,185,2.0,4.0,68,0.00,,,0.00,Wunderground v.1.15,2013-11-04 16:08:00,
2013-11-04 11:09:00,52.5,42.2,30.35,South,176,2.0,4.0,68,0.00,,,0.00,Wunderground v.1.15,2013-11-04 16:09:00,
2013-11-04 11:11:00,52.5,42.2,30.35,SW,223,2.0,2.0,68,0.00,,,0.00,Wunderground v.1.15,2013-11-04 16:11:00,
2013-11-04 11:13:00,52.7,42.0,30.35,South,191,1.0,2.0,67,0.00,,,0.00,Wunderground v.1.15,2013-11-04 16:13:00,
2013-11-04 11:14:00,52.7,42.4,30.35,South,191,1.0,2.0,68,0.00,,,0.00,Wunderground v.1.15,2013-11-04 16:14:00,
2013-11-04 11:16:00,52.7,42.4,30.34,SSW,196,1.0,2.0,68,0.00,,,0.00,Wunderground v.1.15,2013-11-04 16:16:00,
2013-11-04 11:18:00,52.8,42.1,30.34,SSW,199,1.0,2.0,67,0.00,,,0.00,Wunderground v.1.15,2013-11-04 16:18:00,
2013-11-04 11:19:00,52.8,42.5,30.34,SSW,199,1.0,2.0,68,0.00,,,0.00,Wunderground v.1.15,2013-11-04 16:19:00,
2013-11-04 11:20:00,53.0,42.7,30.34,SSW,199,1.0,1.0,68,0.00,,,0.00,Wunderground v.1.15,2013-11-04 16:20:00,
2013-11-04 11:23:00,53.0,42.7,30.34,SSE,161,0.0,2.0,68,0.00,,,0.00,Wunderground v.1.15,2013-11-04 16:23:00,
2013-11-04 11:24:00,53.0,42.3,30.34,SSE,161,0.0,2.0,67,0.00,,,0.00,Wunderground v.1.15,2013-11-04 16:24:00,
2013-11-04 11:26:00,53.1,42.8,30.34,SSE,148,0.0,2.0,68,0.00,,,0.00,Wunderground v.1.15,2013-11-04 16:26:00,
2013-11-04 11:27:00,53.1,42.4,30.34,SSE,164,0.0,2.0,67,0.00,,,0.00,Wunderground v.1.15,2013-11-04 16:27:00,
2013-11-04 11:29:00,53.1,42.0,30.34,South,186,0.0,2.0,66,0.00,,,0.00,Wunderground v.1.15,2013-11-04 16:29:00,
2013-11-04 11:31:00,53.1,42.4,30.33,South,185,0.0,0.0,67,0.00,,,0.00,Wunderground v.1.15,2013-11-04 16:31:00,
2013-11-04 11:33:00,53.3,42.6,30.33,South,185,0.0,0.0,67,0.00,,,0.00,Wunderground v.1.15,2013-11-04 16:33:00,
2013-11-04 11:35:00,53.3,42.6,30.33,SE,140,0.0,0.0,67,0.00,,,0.00,Wunderground v.1.15,2013-11-04 16:35:00,
2013-11-04 11:36:00,53.3,42.6,30.33,SE,140,0.0,0.0,67,0.00,,,0.00,Wunderground v.1.15,2013-11-04 16:36:00,
2013-11-04 11:37:00,53.3,43.0,30.33,SE,144,0.0,0.0,68,0.00,,,0.00,Wunderground v.1.15,2013-11-04 16:37:00,
2013-11-04 11:39:00,53.3,42.2,30.33,South,172,0.0,0.0,66,0.00,,,0.00,Wunderground v.1.15,2013-11-04 16:39:00,
2013-11-04 11:40:00,53.3,42.6,30.33,South,172,0.0,0.0,67,0.00,,,0.00,Wunderground v.1.15,2013-11-04 16:40:00,
2013-11-04 11:43:00,53.4,41.9,30.33,South,169,0.0,0.0,65,0.00,,,0.00,Wunderground v.1.15,2013-11-04 16:43:00,
2013-11-04 11:45:00,53.4,42.3,30.33,South,169,0.0,0.0,66,0.00,,,0.00,Wunderground v.1.15,2013-11-04 16:45:00,
2013-11-04 11:48:00,53.6,42.5,30.33,SSE,161,0.0,0.0,66,0.00,,,0.00,Wunderground v.1.15,2013-11-04 16:48:00,
2013-11-04 11:49:00,53.6,42.5,30.33,SSE,161,0.0,0.0,66,0.00,,,0.00,Wunderground v.1.15,2013-11-04 16:49:00,
2013-11-04 11:50:00,53.7,42.6,30.33,SE,130,0.0,1.0,66,0.00,,,0.00,Wunderground v.1.15,2013-11-04 16:50:00,
2013-11-04 11:53:00,53.7,41.8,30.33,SSE,157,0.0,1.0,64,0.00,,,0.00,Wunderground v.1.15,2013-11-04 16:53:00,
2013-11-04 11:55:00,53.8,41.9,30.33,SSE,157,0.0,1.0,64,0.00,,,0.00,Wunderground v.1.15,2013-11-04 16:55:00,
2013-11-04 11:56:00,53.8,41.9,30.33,South,179,0.0,2.0,64,0.00,,,0.00,Wunderground v.1.15,2013-11-04 16:56:00,
2013-11-04 11:57:00,54.0,42.1,30.33,SSW,203,0.0,6.0,64,0.00,,,0.00,Wunderground v.1.15,2013-11-04 16:57:00,
2013-11-04 12:02:00,54.1,42.2,30.32,South,188,1.0,1.0,64,0.00,,,0.00,Wunderground v.1.15,2013-11-04 17:02:00,
2013-11-04 12:03:00,54.1,42.2,30.32,South,188,1.0,1.0,64,0.00,,,0.00,Wunderground v.1.15,2013-11-04 17:03:00,
2013-11-04 12:05:00,54.3,42.8,30.32,South,188,1.0,1.0,65,0.00,,,0.00,Wunderground v.1.15,2013-11-04 17:05:00,
2013-11-04 12:06:00,54.3,42.4,30.32,South,188,1.0,1.0,64,0.00,,,0.00,Wunderground v.1.15,2013-11-04 17:06:00,
2013-11-04 12:10:00,54.4,42.1,30.32,South,188,0.0,0.0,63,0.00,,,0.00,Wunderground v.1.15,2013-11-04 17:10:00,
2013-11-04 12:11:00,54.4,42.1,30.32,South,188,0.0,0.0,63,0.00,,,0.00,Wunderground v.1.15,2013-11-04 17:11:00,
2013-11-04 12:12:00,54.4,42.1,30.32,South,188,0.0,0.0,63,0.00,,,0.00,Wunderground v.1.15,2013-11-04 17:12:00,
2013-11-04 12:13:00,54.6,41.8,30.32,South,188,0.0,0.0,62,0.00,,,0.00,Wunderground v.1.15,2013-11-04 17:13:00,
2013-11-04 12:16:00,54.6,42.7,30.31,SSW,205,0.0,0.0,64,0.00,,,0.00,Wunderground v.1.15,2013-11-04 17:16:00,
2013-11-04 12:18:00,54.7,42.3,30.31,South,175,0.0,0.0,63,0.00,,,0.00,Wunderground v.1.15,2013-11-04 17:18:00,
2013-11-04 12:19:00,54.9,42.5,30.31,SSE,164,0.0,0.0,63,0.00,,,0.00,Wunderground v.1.15,2013-11-04 17:19:00,
2013-11-04 12:20:00,54.9,42.5,30.31,SSW,203,0.0,2.0,63,0.00,,,0.00,Wunderground v.1.15,2013-11-04 17:20:00,
2013-11-04 12:22:00,54.9,42.5,30.31,SSW,206,1.0,2.0,63,0.00,,,0.00,Wunderground v.1.15,2013-11-04 17:22:00,
2013-11-04 12:23:00,55.0,42.6,30.31,SSW,206,1.0,2.0,63,0.00,,,0.00,Wunderground v.1.15,2013-11-04 17:23:00,
2013-11-04 12:25:00,55.0,42.2,30.31,SSW,198,1.0,2.0,62,0.00,,,0.00,Wunderground v.1.15,2013-11-04 17:25:00,
2013-11-04 12:27:00,55.0,42.6,30.31,SSW,198,0.0,2.0,63,0.00,,,0.00,Wunderground v.1.15,2013-11-04 17:27:00,
2013-11-04 12:28:00,55.2,42.4,30.31,ESE,123,1.0,2.0,62,0.00,,,0.00,Wunderground v.1.15,2013-11-04 17:28:00,
2013-11-04 12:30:00,55.2,42.4,30.31,South,179,1.0,1.0,62,0.00,,,0.00,Wunderground v.1.15,2013-11-04 17:30:00,
2013-11-04 12:31:00,55.2,42.4,30.31,SSE,160,1.0,1.0,62,0.00,,,0.00,Wunderground v.1.15,2013-11-04 17:31:00,
2013-11-04 12:33:00,55.3,42.1,30.31,SW,220,2.0,5.0,61,0.00,,,0.00,Wunderground v.1.15,2013-11-04 17:33:00,
2013-11-04 12:36:00,55.5,42.7,30.31,SSW,200,2.0,5.0,62,0.00,,,0.00,Wunderground v.1.15,2013-11-04 17:36:00,
2013-11-04 12:39:00,55.6,41.9,30.31,SW,219,2.0,5.0,60,0.00,,,0.00,Wunderground v.1.15,2013-11-04 17:39:00,
2013-11-04 12:41:00,55.6,41.9,30.31,SSW,205,2.0,7.0,60,0.00,,,0.00,Wunderground v.1.15,2013-11-04 17:41:00,
2013-11-04 12:42:00,55.8,42.5,30.31,South,185,2.0,7.0,61,0.00,,,0.00,Wunderground v.1.15,2013-11-04 17:42:00,
2013-11-04 12:45:00,55.9,42.6,30.30,SSE,160,1.0,7.0,61,0.00,,,0.00,Wunderground v.1.15,2013-11-04 17:45:00,
2013-11-04 12:46:00,55.9,43.1,30.30,SSE,168,1.0,7.0,62,0.00,,,0.00,Wunderground v.1.15,2013-11-04 17:46:00,
2013-11-04 12:48:00,56.1,42.8,30.30,SSE,168,1.0,7.0,61,0.00,,,0.00,Wunderground v.1.15,2013-11-04 17:48:00,
2013-11-04 12:52:00,56.1,42.8,30.30,SSW,195,0.0,0.0,61,0.00,,,0.00,Wunderground v.1.15,2013-11-04 17:52:00,
2013-11-04 12:55:00,56.2,42.9,30.30,South,182,0.0,0.0,61,0.00,,,0.00,Wunderground v.1.15,2013-11-04 17:55:00,
2013-11-04 12:56:00,56.2,42.9,30.30,ESE,112,0.0,2.0,61,0.00,,,0.00,Wunderground v.1.15,2013-11-04 17:56:00,
2013-11-04 12:58:00,56.2,42.5,30.30,SSE,148,0.0,2.0,60,0.00,,,0.00,Wunderground v.1.15,2013-11-04 17:58:00,
2013-11-04 13:00:00,56.2,42.9,30.28,SSE,147,0.0,0.0,61,0.00,,,0.00,Wunderground v.1.15,2013-11-04 18:00:00,
2013-11-04 13:02:00,56.2,42.5,30.28,SSE,168,1.0,7.0,60,0.00,,,0.00,Wunderground v.1.15,2013-11-04 18:02:00,
2013-11-04 13:04:00,56.2,42.5,30.28,SE,126,1.0,7.0,60,0.00,,,0.00,Wunderground v.1.15,2013-11-04 18:04:00,
2013-11-04 13:09:00,56.4,43.1,30.28,SE,128,1.0,7.0,61,0.00,,,0.00,Wunderground v.1.15,2013-11-04 18:09:00,
2013-11-04 13:10:00,56.4,43.1,30.28,SSE,155,1.0,1.0,61,0.00,,,0.00,Wunderground v.1.15,2013-11-04 18:10:00,
2013-11-04 13:14:00,56.5,42.3,30.28,South,174,1.0,2.0,59,0.00,,,0.00,Wunderground v.1.15,2013-11-04 18:14:00,
2013-11-04 13:15:00,56.5,42.3,30.28,SSE,148,1.0,2.0,59,0.00,,,0.00,Wunderground v.1.15,2013-11-04 18:15:00,
2013-11-04 13:17:00,56.7,42.5,30.28,South,172,1.0,2.0,59,0.00,,,0.00,Wunderground v.1.15,2013-11-04 18:17:00,
2013-11-04 13:20:00,56.7,42.5,30.28,SSW,195,1.0,1.0,59,0.00,,,0.00,Wunderground v.1.15,2013-11-04 18:20:00,
2013-11-04 13:21:00,56.7,42.5,30.28,SSW,212,1.0,3.0,59,0.00,,,0.00,Wunderground v.1.15,2013-11-04 18:21:00,
2013-11-04 13:22:00,56.7,43.0,30.28,SSE,155,1.0,3.0,60,0.00,,,0.00,Wunderground v.1.15,2013-11-04 18:22:00,
2013-11-04 13:26:00,56.8,42.6,30.28,SSW,193,1.0,10.0,59,0.00,,,0.00,Wunderground v.1.15,2013-11-04 18:26:00,
2013-11-04 13:27:00,56.8,42.6,30.28,South,178,2.0,10.0,59,0.00,,,0.00,Wunderground v.1.15,2013-11-04 18:27:00,
2013-11-04 13:28:00,57.0,43.2,30.28,South,182,2.0,10.0,60,0.00,,,0.00,Wunderground v.1.15,2013-11-04 18:28:00,
2013-11-04 13:30:00,57.0,43.2,30.28,South,175,1.0,6.0,60,0.00,,,0.00,Wunderground v.1.15,2013-11-04 18:30:00,
2013-11-04 13:31:00,57.0,43.2,30.28,SW,216,2.0,6.0,60,0.00,,,0.00,Wunderground v.1.15,2013-11-04 18:31:00,
2013-11-04 13:32:00,57.0,43.2,30.28,SSE,154,1.0,6.0,60,0.00,,,0.00,Wunderground v.1.15,2013-11-04 18:32:00,
2013-11-04 13:35:00,57.0,42.8,30.28,SSW,208,1.0,6.0,59,0.00,,,0.00,Wunderground v.1.15,2013-11-04 18:35:00,
2013-11-04 13:38:00,57.1,43.3,30.28,South,184,1.0,6.0,60,0.00,,,0.00,Wunderground v.1.15,2013-11-04 18:38:00,
2013-11-04 13:39:00,57.1,42.9,30.28,SSW,200,1.0,6.0,59,0.00,,,0.00,Wunderground v.1.15,2013-11-04 18:39:00,
2013-11-04 13:40:00,57.1,42.9,30.28,WSW,246,2.0,2.0,59,0.00,,,0.00,Wunderground v.1.15,2013-11-04 18:40:00,
2013-11-04 13:43:00,57.1,42.9,30.28,SSW,195,1.0,2.0,59,0.00,,,0.00,Wunderground v.1.15,2013-11-04 18:43:00,
2013-11-04 13:44:00,57.2,43.4,30.28,SSW,202,1.0,2.0,60,0.00,,,0.00,Wunderground v.1.15,2013-11-04 18:44:00,
2013-11-04 13:46:00,57.2,43.0,30.28,SW,229,2.0,2.0,59,0.00,,,0.00,Wunderground v.1.15,2013-11-04 18:46:00,
2013-11-04 13:49:00,57.2,43.0,30.28,WSW,251,1.0,2.0,59,0.00,,,0.00,Wunderground v.1.15,2013-11-04 18:49:00,
2013-11-04 13:50:00,57.2,43.0,30.28,SSW,200,1.0,2.0,59,0.00,,,0.00,Wunderground v.1.15,2013-11-04 18:50:00,
2013-11-04 13:51:00,57.4,43.2,30.28,SSW,200,1.0,2.0,59,0.00,,,0.00,Wunderground v.1.15,2013-11-04 18:51:00,
2013-11-04 13:52:00,57.4,43.6,30.28,SSW,200,1.0,2.0,60,0.00,,,0.00,Wunderground v.1.15,2013-11-04 18:52:00,
2013-11-04 13:53:00,57.4,43.2,30.28,South,185,1.0,5.0,59,0.00,,,0.00,Wunderground v.1.15,2013-11-04 18:53:00,
2013-11-04 13:54:00,57.4,43.2,30.28,SSW,193,1.0,5.0,59,0.00,,,0.00,Wunderground v.1.15,2013-11-04 18:54:00,
2013-11-04 13:55:00,57.4,43.6,30.28,SSW,208,1.0,5.0,60,0.00,,,0.00,Wunderground v.1.15,2013-11-04 18:55:00,
2013-11-04 13:59:00,57.4,43.2,30.28,SSW,203,2.0,6.0,59,0.00,,,0.00,Wunderground v.1.15,2013-11-04 18:59:00,
2013-11-04 14:00:00,57.4,43.2,30.29,SW,224,3.0,3.0,59,0.00,,,0.00,Wunderground v.1.15,2013-11-04 19:00:00,
2013-11-04 14:03:00,57.4,43.6,30.29,SW,229,2.0,3.0,60,0.00,,,0.00,Wunderground v.1.15,2013-11-04 19:03:00,
2013-11-04 14:04:00,57.4,43.6,30.29,SW,226,2.0,3.0,60,0.00,,,0.00,Wunderground v.1.15,2013-11-04 19:04:00,
2013-11-04 14:06:00,57.4,43.6,30.29,SW,226,2.0,3.0,60,0.00,,,0.00,Wunderground v.1.15,2013-11-04 19:06:00,
2013-11-04 14:08:00,57.4,43.6,30.29,SW,227,1.0,3.0,60,0.00,,,0.00,Wunderground v.1.15,2013-11-04 19:08:00,
2013-11-04 14:09:00,57.4,43.6,30.29,SW,215,1.0,3.0,60,0.00,,,0.00,Wunderground v.1.15,2013-11-04 19:09:00,
2013-11-04 14:12:00,57.5,43.7,30.29,SW,219,1.0,5.0,60,0.00,,,0.00,Wunderground v.1.15,2013-11-04 19:12:00,
2013-11-04 14:15:00,57.5,43.7,30.28,South,181,1.0,5.0,60,0.00,,,0.00,Wunderground v.1.15,2013-11-04 19:15:00,
2013-11-04 14:16:00,57.5,43.7,30.28,SSW,206,1.0,5.0,60,0.00,,,0.00,Wunderground v.1.15,2013-11-04 19:16:00,
2013-11-04 14:17:00,57.5,43.7,30.28,SSW,208,1.0,5.0,60,0.00,,,0.00,Wunderground v.1.15,2013-11-04 19:17:00,
2013-11-04 14:18:00,57.5,43.7,30.28,SSW,213,1.0,5.0,60,0.00,,,0.00,Wunderground v.1.15,2013-11-04 19:18:00,
2013-11-04 14:21:00,57.7,43.9,30.28,SSW,203,1.0,1.0,60,0.00,,,0.00,Wunderground v.1.15,2013-11-04 19:21:00,
2013-11-04 14:22:00,57.7,43.5,30.28,SSW,203,0.0,1.0,59,0.00,,,0.00,Wunderground v.1.15,2013-11-04 19:22:00,
2013-11-04 14:23:00,57.7,43.5,30.28,SSW,203,0.0,1.0,59,0.00,,,0.00,Wunderground v.1.15,2013-11-04 19:23:00,
2013-11-04 14:24:00,57.7,43.9,30.28,SSW,203,0.0,1.0,60,0.00,,,0.00,Wunderground v.1.15,2013-11-04 19:24:00,
2013-11-04 14:26:00,57.7,43.9,30.28,SSW,209,0.0,1.0,60,0.00,,,0.00,Wunderground v.1.15,2013-11-04 19:26:00,
2013-11-04 14:29:00,57.7,43.9,30.28,South,186,0.0,3.0,60,0.00,,,0.00,Wunderground v.1.15,2013-11-04 19:29:00,
2013-11-04 14:30:00,57.7,43.9,30.28,SW,230,0.0,6.0,60,0.00,,,0.00,Wunderground v.1.15,2013-11-04 19:30:00,
2013-11-04 14:32:00,57.8,43.6,30.28,SW,219,1.0,6.0,59,0.00,,,0.00,Wunderground v.1.15,2013-11-04 19:32:00,
2013-11-04 14:33:00,57.8,43.6,30.28,SW,219,1.0,6.0,59,0.00,,,0.00,Wunderground v.1.15,2013-11-04 19:33:00,
2013-11-04 14:34:00,57.8,43.6,30.28,SW,219,2.0,6.0,59,0.00,,,0.00,Wunderground v.1.15,2013-11-04 19:34:00,
2013-11-04 14:35:00,57.8,43.6,30.28,SW,219,2.0,6.0,59,0.00,,,0.00,Wunderground v.1.15,2013-11-04 19:35:00,
2013-11-04 14:38:00,57.8,43.6,30.28,SW,234,2.0,6.0,59,0.00,,,0.00,Wunderground v.1.15,2013-11-04 19:38:00,
2013-11-04 14:39:00,57.8,43.6,30.28,SW,234,2.0,6.0,59,0.00,,,0.00,Wunderground v.1.15,2013-11-04 19:39:00,
2013-11-04 14:40:00,57.8,44.0,30.28,SW,234,2.0,2.0,60,0.00,,,0.00,Wunderground v.1.15,2013-11-04 19:40:00,
2013-11-04 14:42:00,58.0,44.2,30.28,SSW,210,1.0,2.0,60,0.00,,,0.00,Wunderground v.1.15,2013-11-04 19:42:00,
2013-11-04 14:43:00,58.0,44.2,30.28,SSW,210,0.0,2.0,60,0.00,,,0.00,Wunderground v.1.15,2013-11-04 19:43:00,
2013-11-04 14:44:00,58.0,44.2,30.28,SSW,210,0.0,2.0,60,0.00,,,0.00,Wunderground v.1.15,2013-11-04 19:44:00,
2013-11-04 14:46:00,58.0,44.2,30.28,SSW,210,0.0,2.0,60,0.00,,,0.00,Wunderground v.1.15,2013-11-04 19:46:00,
2013-11-04 14:48:00,58.0,44.2,30.28,SSW,210,0.0,2.0,60,0.00,,,0.00,Wunderground v.1.15,2013-11-04 19:48:00,
2013-11-04 14:50:00,58.0,44.6,30.28,SSW,210,0.0,0.0,61,0.00,,,0.00,Wunderground v.1.15,2013-11-04 19:50:00,
2013-11-04 14:52:00,58.0,45.5,30.28,SSW,210,0.0,0.0,63,0.00,,,0.00,Wunderground v.1.15,2013-11-04 19:52:00,
2013-11-04 14:54:00,58.0,44.6,30.28,SSW,210,0.0,0.0,61,0.00,,,0.00,Wunderground v.1.15,2013-11-04 19:54:00,
2013-11-04 14:57:00,58.0,44.2,30.28,SSW,210,0.0,0.0,60,0.00,,,0.00,Wunderground v.1.15,2013-11-04 19:57:00,
2013-11-04 14:58:00,58.0,44.2,30.28,SSW,210,0.0,0.0,60,0.00,,,0.00,Wunderground v.1.15,2013-11-04 19:58:00,
2013-11-04 14:59:00,58.0,44.2,30.28,SSW,210,0.0,0.0,60,0.00,,,0.00,Wunderground v.1.15,2013-11-04 19:59:00,
2013-11-04 15:00:00,58.0,44.2,30.27,SSW,210,0.0,0.0,60,0.00,,,0.00,Wunderground v.1.15,2013-11-04 20:00:00,
2013-11-04 15:01:00,58.0,44.2,30.27,SSW,210,0.0,0.0,60,0.00,,,0.00,Wunderground v.1.15,2013-11-04 20:01:00,
2013-11-04 15:03:00,58.0,44.2,30.27,SSW,210,0.0,0.0,60,0.00,,,0.00,Wunderground v.1.15,2013-11-04 20:03:00,
2013-11-04 15:04:00,58.0,45.0,30.27,SSW,210,0.0,0.0,62,0.00,,,0.00,Wunderground v.1.15,2013-11-04 20:04:00,
2013-11-04 15:10:00,58.0,45.0,30.27,SSW,210,0.0,0.0,62,0.00,,,0.00,Wunderground v.1.15,2013-11-04 20:10:00,
2013-11-04 15:11:00,58.0,45.0,30.27,SSW,210,0.0,0.0,62,0.00,,,0.00,Wunderground v.1.15,2013-11-04 20:11:00,
2013-11-04 15:12:00,58.0,44.6,30.27,SSW,210,0.0,0.0,61,0.00,,,0.00,Wunderground v.1.15,2013-11-04 20:12:00,
2013-11-04 15:13:00,58.0,45.0,30.27,SSW,210,0.0,0.0,62,0.00,,,0.00,Wunderground v.1.15,2013-11-04 20:13:00,
2013-11-04 15:14:00,58.0,44.6,30.27,SSW,195,0.0,0.0,61,0.00,,,0.00,Wunderground v.1.15,2013-11-04 20:14:00,
2013-11-04 15:16:00,58.1,44.7,30.27,SSW,195,0.0,0.0,61,0.00,,,0.00,Wunderground v.1.15,2013-11-04 20:16:00,
2013-11-04 15:19:00,58.1,45.1,30.27,SSW,195,0.0,0.0,62,0.00,,,0.00,Wunderground v.1.15,2013-11-04 20:19:00,
2013-11-04 15:20:00,58.1,45.1,30.27,SSW,195,0.0,0.0,62,0.00,,,0.00,Wunderground v.1.15,2013-11-04 20:20:00,
2013-11-04 15:23:00,58.1,44.7,30.27,SSW,195,0.0,0.0,61,0.00,,,0.00,Wunderground v.1.15,2013-11-04 20:23:00,
2013-11-04 15:25:00,58.1,44.7,30.27,SSW,195,0.0,0.0,61,0.00,,,0.00,Wunderground v.1.15,2013-11-04 20:25:00,
2013-11-04 15:26:00,58.1,44.7,30.27,SSW,195,0.0,0.0,61,0.00,,,0.00,Wunderground v.1.15,2013-11-04 20:26:00,
2013-11-04 15:28:00,58.1,44.7,30.27,SSW,195,0.0,0.0,61,0.00,,,0.00,Wunderground v.1.15,2013-11-04 20:28:00,
2013-11-04 15:30:00,58.3,44.9,30.27,SSW,195,0.0,0.0,61,0.00,,,0.00,Wunderground v.1.15,2013-11-04 20:30:00,
2013-11-04 15:31:00,58.3,44.9,30.27,SSW,195,0.0,0.0,61,0.00,,,0.00,Wunderground v.1.15,2013-11-04 20:31:00,
2013-11-04 15:33:00,58.3,44.9,30.27,SSW,195,0.0,0.0,61,0.00,,,0.00,Wunderground v.1.15,2013-11-04 20:33:00,
2013-11-04 15:36:00,58.5,45.1,30.27,SSW,195,0.0,0.0,61,0.00,,,0.00,Wunderground v.1.15,2013-11-04 20:36:00,
2013-11-04 15:38:00,58.5,45.1,30.27,SSW,195,0.0,0.0,61,0.00,,,0.00,Wunderground v.1.15,2013-11-04 20:38:00,
2013-11-04 15:39:00,58.5,45.1,30.27,SSW,195,0.0,0.0,61,0.00,,,0.00,Wunderground v.1.15,2013-11-04 20:39:00,
2013-11-04 15:40:00,58.5,45.1,30.27,SSW,195,0.0,0.0,61,0.00,,,0.00,Wunderground v.1.15,2013-11-04 20:40:00,
2013-11-04 15:41:00,58.5,45.1,30.27,SSW,195,0.0,0.0,61,0.00,,,0.00,Wunderground v.1.15,2013-11-04 20:41:00,
2013-11-04 15:43:00,58.6,45.2,30.27,SSW,198,0.0,0.0,61,0.00,,,0.00,Wunderground v.1.15,2013-11-04 20:43:00,
2013-11-04 15:45:00,58.6,45.2,30.27,SSW,198,0.0,0.0,61,0.00,,,0.00,Wunderground v.1.15,2013-11-04 20:45:00,
2013-11-04 15:46:00,58.6,45.2,30.27,SSW,198,0.0,0.0,61,0.00,,,0.00,Wunderground v.1.15,2013-11-04 20:46:00,
2013-11-04 15:47:00,58.6,45.6,30.27,SSW,198,0.0,0.0,62,0.00,,,0.00,Wunderground v.1.15,2013-11-04 20:47:00,
2013-11-04 15:48:00,58.6,45.6,30.27,SSW,198,0.0,0.0,62,0.00,,,0.00,Wunderground v.1.15,2013-11-04 20:48:00,
2013-11-04 15:52:00,58.6,45.2,30.27,SSW,198,0.0,0.0,61,0.00,,,0.00,Wunderground v.1.15,2013-11-04 20:52:00,
2013-11-04 15:54:00,58.8,44.9,30.27,South,178,0.0,2.0,60,0.00,,,0.00,Wunderground v.1.15,2013-11-04 20:54:00,
2013-11-04 15:55:00,58.8,44.9,30.27,South,178,0.0,2.0,60,0.00,,,0.00,Wunderground v.1.15,2013-11-04 20:55:00,
2013-11-04 15:56:00,58.8,45.4,30.27,South,178,0.0,2.0,61,0.00,,,0.00,Wunderground v.1.15,2013-11-04 20:56:00,
2013-11-04 15:58:00,58.8,44.9,30.27,SSE,168,0.0,2.0,60,0.00,,,0.00,Wunderground v.1.15,2013-11-04 20:58:00,
2013-11-04 16:00:00,58.8,44.9,30.27,SSE,168,0.0,0.0,60,0.00,,,0.00,Wunderground v.1.15,2013-11-04 21:00:00,
2013-11-04 16:02:00,58.8,44.9,30.27,SSE,168,0.0,0.0,60,0.00,,,0.00,Wunderground v.1.15,2013-11-04 21:02:00,
2013-11-04 16:03:00,58.8,44.9,30.27,SSE,168,0.0,0.0,60,0.00,,,0.00,Wunderground v.1.15,2013-11-04 21:03:00,
2013-11-04 16:04:00,58.8,44.5,30.27,SSE,168,0.0,0.0,59,0.00,,,0.00,Wunderground v.1.15,2013-11-04 21:04:00,
2013-11-04 16:06:00,58.8,44.5,30.27,SSW,208,0.0,0.0,59,0.00,,,0.00,Wunderground v.1.15,2013-11-04 21:06:00,
2013-11-04 16:07:00,58.8,44.5,30.27,SSW,206,0.0,0.0,59,0.00,,,0.00,Wunderground v.1.15,2013-11-04 21:07:00,
2013-11-04 16:09:00,58.8,44.5,30.27,SW,223,0.0,0.0,59,0.00,,,0.00,Wunderground v.1.15,2013-11-04 21:09:00,
2013-11-04 16:10:00,58.9,44.6,30.27,SW,217,0.0,0.0,59,0.00,,,0.00,Wunderground v.1.15,2013-11-04 21:10:00,
2013-11-04 16:12:00,58.9,44.1,30.27,SSW,199,1.0,1.0,58,0.00,,,0.00,Wunderground v.1.15,2013-11-04 21:12:00,
2013-11-04 16:13:00,58.9,44.1,30.27,SSW,199,1.0,1.0,58,0.00,,,0.00,Wunderground v.1.15,2013-11-04 21:13:00,
2013-11-04 16:14:00,58.9,44.1,30.27,SSW,212,1.0,1.0,58,0.00,,,0.00,Wunderground v.1.15,2013-11-04 21:14:00,
2013-11-04 16:18:00,59.1,44.8,30.28,SSW,193,1.0,2.0,59,0.00,,,0.00,Wunderground v.1.15,2013-11-04 21:18:00,
2013-11-04 16:19:00,59.1,44.3,30.28,South,174,1.0,2.0,58,0.00,,,0.00,Wunderground v.1.15,2013-11-04 21:19:00,
2013-11-04 16:20:00,59.1,44.3,30.28,SW,220,1.0,1.0,58,0.00,,,0.00,Wunderground v.1.15,2013-11-04 21:20:00,
2013-11-04 16:21:00,59.1,44.3,30.28,South,188,1.0,1.0,58,0.00,,,0.00,Wunderground v.1.15,2013-11-04 21:21:00,
2013-11-04 16:26:00,59.1,43.9,30.28,SW,222,2.0,5.0,57,0.00,,,0.00,Wunderground v.1.15,2013-11-04 21:26:00,
2013-11-04 16:27:00,59.1,43.9,30.28,SSW,200,2.0,5.0,57,0.00,,,0.00,Wunderground v.1.15,2013-11-04 21:27:00,
2013-11-04 16:29:00,59.1,43.4,30.28,SW,217,2.0,6.0,56,0.00,,,0.00,Wunderground v.1.15,2013-11-04 21:29:00,
2013-11-04 16:30:00,59.1,43.9,30.28,SSW,199,2.0,2.0,57,0.00,,,0.00,Wunderground v.1.15,2013-11-04 21:30:00,
2013-11-04 16:32:00,59.2,43.5,30.28,SSW,199,3.0,13.0,56,0.00,,,0.00,Wunderground v.1.15,2013-11-04 21:32:00,
2013-11-04 16:34:00,59.2,43.5,30.28,SSE,161,4.0,13.0,56,0.00,,,0.00,Wunderground v.1.15,2013-11-04 21:34:00,
2013-11-04 16:36:00,59.2,43.5,30.28,SE,133,5.0,13.0,56,0.00,,,0.00,Wunderground v.1.15,2013-11-04 21:36:00,
2013-11-04 16:38:00,59.2,43.5,30.28,SSW,195,5.0,13.0,56,0.00,,,0.00,Wunderground v.1.15,2013-11-04 21:38:00,
2013-11-04 16:40:00,59.2,43.5,30.28,SSW,210,4.0,6.0,56,0.00,,,0.00,Wunderground v.1.15,2013-11-04 21:40:00,
2013-11-04 16:41:00,59.2,43.5,30.28,SSW,212,5.0,6.0,56,0.00,,,0.00,Wunderground v.1.15,2013-11-04 21:41:00,
2013-11-04 16:42:00,59.2,43.5,30.28,SW,223,4.0,6.0,56,0.00,,,0.00,Wunderground v.1.15,2013-11-04 21:42:00,
2013-11-04 16:45:00,59.2,43.5,30.27,SSW,206,3.0,6.0,56,0.00,,,0.00,Wunderground v.1.15,2013-11-04 21:45:00,
2013-11-04 16:47:00,59.2,43.5,30.27,SSW,213,3.0,7.0,56,0.00,,,0.00,Wunderground v.1.15,2013-11-04 21:47:00,
2013-11-04 16:48:00,59.2,43.5,30.27,SSW,212,3.0,7.0,56,0.00,,,0.00,Wunderground v.1.15,2013-11-04 21:48:00,
2013-11-04 16:50:00,59.2,43.5,30.27,South,188,3.0,3.0,56,0.00,,,0.00,Wunderground v.1.15,2013-11-04 21:50:00,
2013-11-04 16:51:00,59.2,43.5,30.27,South,188,3.0,3.0,56,0.00,,,0.00,Wunderground v.1.15,2013-11-04 21:51:00,
2013-11-04 16:52:00,59.2,43.5,30.27,SW,232,3.0,3.0,56,0.00,,,0.00,Wunderground v.1.15,2013-11-04 21:52:00,
2013-11-04 16:54:00,59.2,43.5,30.27,South,186,3.0,7.0,56,0.00,,,0.00,Wunderground v.1.15,2013-11-04 21:54:00,
2013-11-04 16:56:00,59.1,43.4,30.27,SW,217,3.0,7.0,56,0.00,,,0.00,Wunderground v.1.15,2013-11-04 21:56:00,
2013-11-04 16:58:00,59.1,43.4,30.27,SSW,212,2.0,7.0,56,0.00,,,0.00,Wunderground v.1.15,2013-11-04 21:58:00,
2013-11-04 16:59:00,59.1,43.4,30.27,South,174,2.0,7.0,56,0.00,,,0.00,Wunderground v.1.15,2013-11-04 21:59:00,
2013-11-04 17:00:00,59.1,43.4,30.28,SW,216,3.0,3.0,56,0.00,,,0.00,Wunderground v.1.15,2013-11-04 22:00:00,
2013-11-04 17:01:00,59.1,43.4,30.28,South,171,3.0,7.0,56,0.00,,,0.00,Wunderground v.1.15,2013-11-04 22:01:00,
2013-11-04 17:02:00,59.1,43.4,30.28,South,178,3.0,7.0,56,0.00,,,0.00,Wunderground v.1.15,2013-11-04 22:02:00,
2013-11-04 17:04:00,59.1,43.4,30.28,SW,220,3.0,7.0,56,0.00,,,0.00,Wunderground v.1.15,2013-11-04 22:04:00,
2013-11-04 17:06:00,59.1,43.4,30.28,SW,216,3.0,7.0,56,0.00,,,0.00,Wunderground v.1.15,2013-11-04 22:06:00,
2013-11-04 17:07:00,59.1,43.4,30.28,SSW,203,3.0,7.0,56,0.00,,,0.00,Wunderground v.1.15,2013-11-04 22:07:00,
2013-11-04 17:09:00,58.9,43.2,30.28,SSW,212,3.0,7.0,56,0.00,,,0.00,Wunderground v.1.15,2013-11-04 22:09:00,
2013-11-04 17:10:00,58.9,43.7,30.28,SW,223,3.0,3.0,57,0.00,,,0.00,Wunderground v.1.15,2013-11-04 22:10:00,
2013-11-04 17:12:00,58.9,43.7,30.28,SW,226,3.0,3.0,57,0.00,,,0.00,Wunderground v.1.15,2013-11-04 22:12:00,
2013-11-04 17:13:00,58.9,43.7,30.28,South,184,2.0,5.0,57,0.00,,,0.00,Wunderground v.1.15,2013-11-04 22:13:00,
2013-11-04 17:14:00,58.9,43.7,30.28,South,182,3.0,5.0,57,0.00,,,0.00,Wunderground v.1.15,2013-11-04 22:14:00,
2013-11-04 17:15:00,58.9,43.7,30.28,SW,227,3.0,5.0,57,0.00,,,0.00,Wunderground v.1.15,2013-11-04 22:15:00,
2013-11-04 17:18:00,58.8,43.6,30.28,SW,220,2.0,5.0,57,0.00,,,0.00,Wunderground v.1.15,2013-11-04 22:18:00,
2013-11-04 17:19:00,58.8,44.0,30.28,South,184,2.0,5.0,58,0.00,,,0.00,Wunderground v.1.15,2013-11-04 22:19:00,
2013-11-04 17:21:00,58.6,43.4,30.28,SSE,162,2.0,4.0,57,0.00,,,0.00,Wunderground v.1.15,2013-11-04 22:21:00,
2013-11-04 17:24:00,58.6,43.9,30.28,SW,222,1.0,4.0,58,0.00,,,0.00,Wunderground v.1.15,2013-11-04 22:24:00,
2013-11-04 17:25:00,58.6,43.9,30.28,SSW,198,1.0,4.0,58,0.00,,,0.00,Wunderground v.1.15,2013-11-04 22:25:00,
2013-11-04 17:26:00,58.5,43.8,30.28,SSW,198,1.0,4.0,58,0.00,,,0.00,Wunderground v.1.15,2013-11-04 22:26:00,
2013-11-04 17:27:00,58.5,43.8,30.28,SSW,195,1.0,4.0,58,0.00,,,0.00,Wunderground v.1.15,2013-11-04 22:27:00,
2013-11-04 17:30:00,58.5,43.3,30.28,SW,229,2.0,5.0,57,0.00,,,0.00,Wunderground v.1.15,2013-11-04 22:30:00,
2013-11-04 17:31:00,58.5,43.3,30.28,SW,224,2.0,5.0,57,0.00,,,0.00,Wunderground v.1.15,2013-11-04 22:31:00,
2013-11-04 17:33:00,58.5,43.8,30.28,SW,232,2.0,5.0,58,0.00,,,0.00,Wunderground v.1.15,2013-11-04 22:33:00,
2013-11-04 17:35:00,58.5,43.3,30.28,SSE,161,2.0,5.0,57,0.00,,,0.00,Wunderground v.1.15,2013-11-04 22:35:00,
2013-11-04 17:36:00,58.5,43.8,30.28,SW,234,2.0,5.0,58,0.00,,,0.00,Wunderground v.1.15,2013-11-04 22:36:00,
2013-11-04 17:37:00,58.5,43.8,30.28,WSW,239,2.0,5.0,58,0.00,,,0.00,Wunderground v.1.15,2013-11-04 22:37:00,
2013-11-04 17:38:00,58.5,43.8,30.28,WSW,239,2.0,5.0,58,0.00,,,0.00,Wunderground v.1.15,2013-11-04 22:38:00,
2013-11-04 17:41:00,58.3,43.6,30.28,SSW,210,2.0,6.0,58,0.00,,,0.00,Wunderground v.1.15,2013-11-04 22:41:00,
2013-11-04 17:43:00,58.3,43.6,30.28,SSW,206,2.0,6.0,58,0.00,,,0.00,Wunderground v.1.15,2013-11-04 22:43:00,
2013-11-04 17:44:00,58.3,43.6,30.28,SW,227,1.0,6.0,58,0.00,,,0.00,Wunderground v.1.15,2013-11-04 22:44:00,
2013-11-04 17:45:00,58.3,43.6,30.28,SW,215,2.0,6.0,58,0.00,,,0.00,Wunderground v.1.15,2013-11-04 22:45:00,
2013-11-04 17:46:00,58.1,43.4,30.28,SW,215,1.0,6.0,58,0.00,,,0.00,Wunderground v.1.15,2013-11-04 22:46:00,
2013-11-04 17:48:00,58.1,43.4,30.28,SW,236,1.0,6.0,58,0.00,,,0.00,Wunderground v.1.15,2013-11-04 22:48:00,
2013-11-04 17:49:00,58.1,43.8,30.28,SW,236,1.0,6.0,59,0.00,,,0.00,Wunderground v.1.15,2013-11-04 22:49:00,
2013-11-04 17:50:00,58.1,43.8,30.28,SW,234,1.0,1.0,59,0.00,,,0.00,Wunderground v.1.15,2013-11-04 22:50:00,
2013-11-04 17:52:00,58.0,43.7,30.28,South,184,1.0,1.0,59,0.00,,,0.00,Wunderground v.1.15,2013-11-04 22:52:00,
2013-11-04 17:54:00,58.0,43.7,30.28,South,184,1.0,1.0,59,0.00,,,0.00,Wunderground v.1.15,2013-11-04 22:54:00,
2013-11-04 17:55:00,58.0,43.7,30.28,South,184,0.0,1.0,59,0.00,,,0.00,Wunderground v.1.15,2013-11-04 22:55:00,
2013-11-04 17:58:00,57.8,44.0,30.28,South,184,0.0,1.0,60,0.00,,,0.00,Wunderground v.1.15,2013-11-04 22:58:00,
2013-11-04 17:59:00,57.8,44.0,30.28,South,184,0.0,1.0,60,0.00,,,0.00,Wunderground v.1.15,2013-11-04 22:59:00,
2013-11-04 18:00:00,57.7,43.9,30.28,South,184,0.0,0.0,60,0.00,,,0.00,Wunderground v.1.15,2013-11-04 23:00:00,
2013-11-04 18:01:00,57.7,43.9,30.28,South,184,0.0,0.0,60,0.00,,,0.00,Wunderground v.1.15,2013-11-04 23:01:00,
2013-11-04 18:06:00,57.4,43.6,30.28,South,184,0.0,0.0,60,0.00,,,0.00,Wunderground v.1.15,2013-11-04 23:06:00,
2013-11-04 18:07:00,57.4,43.6,30.28,South,184,0.0,0.0,60,0.00,,,0.00,Wunderground v.1.15,2013-11-04 23:07:00,
2013-11-04 18:08:00,57.2,43.4,30.28,South,184,0.0,0.0,60,0.00,,,0.00,Wunderground v.1.15,2013-11-04 23:08:00,
2013-11-04 18:10:00,57.1,43.8,30.28,South,184,0.0,0.0,61,0.00,,,0.00,Wunderground v.1.15,2013-11-04 23:10:00,
2013-11-04 18:13:00,57.0,43.7,30.28,South,184,0.0,0.0,61,0.00,,,0.00,Wunderground v.1.15,2013-11-04 23:13:00,
2013-11-04 18:14:00,57.0,43.7,30.28,South,184,0.0,0.0,61,0.00,,,0.00,Wunderground v.1.15,2013-11-04 23:14:00,
2013-11-04 18:16:00,56.8,43.5,30.29,South,185,0.0,0.0,61,0.00,,,0.00,Wunderground v.1.15,2013-11-04 23:16:00,
2013-11-04 18:17:00,56.8,43.5,30.29,South,185,0.0,0.0,61,0.00,,,0.00,Wunderground v.1.15,2013-11-04 23:17:00,
2013-11-04 18:19:00,56.7,43.4,30.29,South,185,0.0,0.0,61,0.00,,,0.00,Wunderground v.1.15,2013-11-04 23:19:00,
2013-11-04 18:22:00,56.7,43.4,30.29,South,185,0.0,0.0,61,0.00,,,0.00,Wunderground v.1.15,2013-11-04 23:22:00,
2013-11-04 18:23:00,56.5,43.6,30.29,South,185,0.0,0.0,62,0.00,,,0.00,Wunderground v.1.15,2013-11-04 23:23:00,
2013-11-04 18:24:00,56.5,43.6,30.29,South,185,0.0,0.0,62,0.00,,,0.00,Wunderground v.1.15,2013-11-04 23:24:00,
2013-11-04 18:26:00,56.4,43.5,30.29,South,185,0.0,0.0,62,0.00,,,0.00,Wunderground v.1.15,2013-11-04 23:26:00,
2013-11-04 18:27:00,56.4,43.5,30.29,South,185,0.0,0.0,62,0.00,,,0.00,Wunderground v.1.15,2013-11-04 23:27:00,
2013-11-04 18:29:00,56.2,43.8,30.29,South,185,0.0,0.0,63,0.00,,,0.00,Wunderground v.1.15,2013-11-04 23:29:00,
2013-11-04 18:30:00,56.2,43.8,30.29,South,185,0.0,0.0,63,0.00,,,0.00,Wunderground v.1.15,2013-11-04 23:30:00,
2013-11-04 18:31:00,56.1,43.7,30.29,South,185,0.0,0.0,63,0.00,,,0.00,Wunderground v.1.15,2013-11-04 23:31:00,
2013-11-04 18:34:00,55.9,43.9,30.29,South,185,0.0,0.0,64,0.00,,,0.00,Wunderground v.1.15,2013-11-04 23:34:00,
2013-11-04 18:35:00,55.9,43.9,30.29,South,185,0.0,0.0,64,0.00,,,0.00,Wunderground v.1.15,2013-11-04 23:35:00,
2013-11-04 18:37:00,55.9,43.9,30.29,South,185,0.0,0.0,64,0.00,,,0.00,Wunderground v.1.15,2013-11-04 23:37:00,
2013-11-04 18:38:00,55.8,43.8,30.29,South,185,0.0,0.0,64,0.00,,,0.00,Wunderground v.1.15,2013-11-04 23:38:00,
2013-11-04 18:42:00,55.8,43.8,30.29,SSW,198,0.0,0.0,64,0.00,,,0.00,Wunderground v.1.15,2013-11-04 23:42:00,
2013-11-04 18:43:00,55.8,43.4,30.29,SSW,198,0.0,0.0,63,0.00,,,0.00,Wunderground v.1.15,2013-11-04 23:43:00,
2013-11-04 18:44:00,55.8,43.4,30.29,SSW,198,0.0,0.0,63,0.00,,,0.00,Wunderground v.1.15,2013-11-04 23:44:00,
2013-11-04 18:47:00,55.8,43.4,30.30,SSW,198,0.0,0.0,63,0.00,,,0.00,Wunderground v.1.15,2013-11-04 23:47:00,
2013-11-04 18:48:00,55.8,43.8,30.30,SSW,198,0.0,0.0,64,0.00,,,0.00,Wunderground v.1.15,2013-11-04 23:48:00,
2013-11-04 18:50:00,55.8,43.8,30.30,SSW,198,0.0,0.0,64,0.00,,,0.00,Wunderground v.1.15,2013-11-04 23:50:00,
2013-11-04 18:51:00,55.8,43.8,30.30,SSW,198,0.0,0.0,64,0.00,,,0.00,Wunderground v.1.15,2013-11-04 23:51:00,
2013-11-04 18:53:00,55.6,44.0,30.30,SSW,198,0.0,0.0,65,0.00,,,0.00,Wunderground v.1.15,2013-11-04 23:53:00,
2013-11-04 18:56:00,55.5,43.9,30.30,SSW,198,0.0,0.0,65,0.00,,,0.00,Wunderground v.1.15,2013-11-04 23:56:00,
2013-11-04 18:57:00,55.5,43.9,30.30,SSW,198,0.0,0.0,65,0.00,,,0.00,Wunderground v.1.15,2013-11-04 23:57:00,
2013-11-04 18:59:00,55.3,43.7,30.30,SSW,198,0.0,0.0,65,0.00,,,0.00,Wunderground v.1.15,2013-11-04 23:59:00,
2013-11-04 19:01:00,55.3,43.7,30.30,SSW,198,0.0,0.0,65,0.00,,,0.00,Wunderground v.1.15,2013-11-05 00:01:00,
2013-11-04 19:03:00,55.3,43.7,30.30,SSW,198,0.0,0.0,65,0.00,,,0.00,Wunderground v.1.15,2013-11-05 00:03:00,
2013-11-04 19:05:00,55.3,43.7,30.30,SSW,198,0.0,0.0,65,0.00,,,0.00,Wunderground v.1.15,2013-11-05 00:05:00,
2013-11-04 19:06:00,55.3,43.7,30.30,SSW,198,0.0,0.0,65,0.00,,,0.00,Wunderground v.1.15,2013-11-05 00:06:00,
2013-11-04 19:07:00,55.3,43.7,30.30,SSW,198,0.0,0.0,65,0.00,,,0.00,Wunderground v.1.15,2013-11-05 00:07:00,
2013-11-04 19:08:00,55.3,43.7,30.30,SSW,198,0.0,0.0,65,0.00,,,0.00,Wunderground v.1.15,2013-11-05 00:08:00,
2013-11-04 19:12:00,55.0,43.8,30.30,SSW,198,0.0,0.0,66,0.00,,,0.00,Wunderground v.1.15,2013-11-05 00:12:00,
2013-11-04 19:14:00,55.0,43.8,30.30,SSW,198,0.0,0.0,66,0.00,,,0.00,Wunderground v.1.15,2013-11-05 00:14:00,
2013-11-04 19:15:00,54.9,43.7,30.30,SSW,198,0.0,0.0,66,0.00,,,0.00,Wunderground v.1.15,2013-11-05 00:15:00,
2013-11-04 19:17:00,54.9,43.7,30.30,SSW,198,0.0,0.0,66,0.00,,,0.00,Wunderground v.1.15,2013-11-05 00:17:00,
2013-11-04 19:18:00,54.9,43.7,30.30,SSW,198,0.0,0.0,66,0.00,,,0.00,Wunderground v.1.15,2013-11-05 00:18:00,
2013-11-04 19:19:00,54.7,44.0,30.30,SSW,198,0.0,0.0,67,0.00,,,0.00,Wunderground v.1.15,2013-11-05 00:19:00,
2013-11-04 19:21:00,54.7,44.0,30.30,SSW,198,0.0,0.0,67,0.00,,,0.00,Wunderground v.1.15,2013-11-05 00:21:00,
2013-11-04 19:24:00,54.6,43.9,30.30,SSW,198,0.0,0.0,67,0.00,,,0.00,Wunderground v.1.15,2013-11-05 00:24:00,
2013-11-04 19:27:00,54.4,44.1,30.30,SSW,198,0.0,0.0,68,0.00,,,0.00,Wunderground v.1.15,2013-11-05 00:27:00,
2013-11-04 19:28:00,54.4,44.1,30.30,SSW,198,0.0,0.0,68,0.00,,,0.00,Wunderground v.1.15,2013-11-05 00:28:00,
2013-11-04 19:33:00,54.1,44.2,30.30,SSW,198,0.0,0.0,69,0.00,,,0.00,Wunderground v.1.15,2013-11-05 00:33:00,
2013-11-04 19:34:00,54.1,44.2,30.30,SSW,198,0.0,0.0,69,0.00,,,0.00,Wunderground v.1.15,2013-11-05 00:34:00,
2013-11-04 19:36:00,54.0,44.1,30.30,SSW,198,0.0,0.0,69,0.00,,,0.00,Wunderground v.1.15,2013-11-05 00:36:00,
2013-11-04 19:38:00,54.0,43.7,30.30,SSW,198,0.0,0.0,68,0.00,,,0.00,Wunderground v.1.15,2013-11-05 00:38:00,
2013-11-04 19:40:00,54.0,43.7,30.30,SSW,198,0.0,0.0,68,0.00,,,0.00,Wunderground v.1.15,2013-11-05 00:40:00,
2013-11-04 19:41:00,54.0,43.7,30.30,SSW,198,0.0,0.0,68,0.00,,,0.00,Wunderground v.1.15,2013-11-05 00:41:00,
2013-11-04 19:42:00,54.0,43.7,30.30,SSW,198,0.0,0.0,68,0.00,,,0.00,Wunderground v.1.15,2013-11-05 00:42:00,
2013-11-04 19:43:00,54.0,44.1,30.30,SSW,198,0.0,0.0,69,0.00,,,0.00,Wunderground v.1.15,2013-11-05 00:43:00,
2013-11-04 19:44:00,53.8,43.9,30.30,SSW,198,0.0,0.0,69,0.00,,,0.00,Wunderground v.1.15,2013-11-05 00:44:00,
2013-11-04 19:48:00,53.8,43.9,30.31,SSW,198,0.0,0.0,69,0.00,,,0.00,Wunderground v.1.15,2013-11-05 00:48:00,
2013-11-04 19:49:00,53.8,43.9,30.31,SSW,198,0.0,0.0,69,0.00,,,0.00,Wunderground v.1.15,2013-11-05 00:49:00,
2013-11-04 19:50:00,53.8,43.9,30.31,SSW,198,0.0,0.0,69,0.00,,,0.00,Wunderground v.1.15,2013-11-05 00:50:00,
2013-11-04 19:52:00,53.7,44.1,30.31,SSW,198,0.0,0.0,70,0.00,,,0.00,Wunderground v.1.15,2013-11-05 00:52:00,
2013-11-04 19:55:00,53.3,44.1,30.31,SSW,198,0.0,0.0,71,0.00,,,0.00,Wunderground v.1.15,2013-11-05 00:55:00,
2013-11-04 19:57:00,53.1,43.9,30.31,SSW,198,0.0,0.0,71,0.00,,,0.00,Wunderground v.1.15,2013-11-05 00:57:00,
2013-11-04 19:58:00,53.1,43.9,30.31,SSW,198,0.0,0.0,71,0.00,,,0.00,Wunderground v.1.15,2013-11-05 00:58:00,
2013-11-04 19:59:00,53.0,44.2,30.31,SSW,198,0.0,0.0,72,0.00,,,0.00,Wunderground v.1.15,2013-11-05 00:59:00,
2013-11-04 20:00:00,53.0,44.2,30.31,SSW,198,0.0,0.0,72,0.00,,,0.00,Wunderground v.1.15,2013-11-05 01:00:00,
2013-11-04 20:02:00,52.8,44.0,30.31,SSW,198,0.0,0.0,72,0.00,,,0.00,Wunderground v.1.15,2013-11-05 01:02:00,
2013-11-04 20:03:00,52.8,44.0,30.31,SSW,198,0.0,0.0,72,0.00,,,0.00,Wunderground v.1.15,2013-11-05 01:03:00,
2013-11-04 20:04:00,52.8,44.0,30.31,SSW,198,0.0,0.0,72,0.00,,,0.00,Wunderground v.1.15,2013-11-05 01:04:00,
2013-11-04 20:07:00,52.7,43.9,30.31,SSW,198,0.0,0.0,72,0.00,,,0.00,Wunderground v.1.15,2013-11-05 01:07:00,
2013-11-04 20:11:00,52.7,43.9,30.31,SSW,198,0.0,0.0,72,0.00,,,0.00,Wunderground v.1.15,2013-11-05 01:11:00,
2013-11-04 20:12:00,52.7,43.9,30.31,SSW,198,0.0,0.0,72,0.00,,,0.00,Wunderground v.1.15,2013-11-05 01:12:00,
2013-11-04 20:15:00,52.7,43.9,30.31,SSW,198,0.0,0.0,72,0.00,,,0.00,Wunderground v.1.15,2013-11-05 01:15:00,
2013-11-04 20:16:00,52.5,43.7,30.31,SSW,198,0.0,0.0,72,0.00,,,0.00,Wunderground v.1.15,2013-11-05 01:16:00,
2013-11-04 20:21:00,52.2,44.5,30.31,SSW,198,0.0,0.0,75,0.00,,,0.00,Wunderground v.1.15,2013-11-05 01:21:00,
2013-11-04 20:22:00,52.1,44.8,30.31,SSW,198,0.0,0.0,76,0.00,,,0.00,Wunderground v.1.15,2013-11-05 01:22:00,
2013-11-04 20:23:00,52.1,44.4,30.31,SSW,198,0.0,0.0,75,0.00,,,0.00,Wunderground v.1.15,2013-11-05 01:23:00,
2013-11-04 20:24:00,52.1,44.4,30.31,SSW,198,0.0,0.0,75,0.00,,,0.00,Wunderground v.1.15,2013-11-05 01:24:00,
2013-11-04 20:26:00,51.9,44.2,30.31,SSW,198,0.0,0.0,75,0.00,,,0.00,Wunderground v.1.15,2013-11-05 01:26:00,
2013-11-04 20:27:00,51.9,44.2,30.31,SSW,198,0.0,0.0,75,0.00,,,0.00,Wunderground v.1.15,2013-11-05 01:27:00,
2013-11-04 20:28:00,51.9,44.2,30.31,SSW,198,0.0,0.0,75,0.00,,,0.00,Wunderground v.1.15,2013-11-05 01:28:00,
2013-11-04 20:29:00,51.9,44.2,30.31,SSW,198,0.0,0.0,75,0.00,,,0.00,Wunderground v.1.15,2013-11-05 01:29:00,
2013-11-04 20:31:00,52.1,44.1,30.31,SSW,198,0.0,0.0,74,0.00,,,0.00,Wunderground v.1.15,2013-11-05 01:31:00,
2013-11-04 20:36:00,52.1,44.4,30.31,SSW,198,0.0,0.0,75,0.00,,,0.00,Wunderground v.1.15,2013-11-05 01:36:00,
2013-11-04 20:37:00,52.2,44.2,30.31,SSW,198,0.0,0.0,74,0.00,,,0.00,Wunderground v.1.15,2013-11-05 01:37:00,
2013-11-04 20:39:00,52.4,44.4,30.31,SSW,198,0.0,0.0,74,0.00,,,0.00,Wunderground v.1.15,2013-11-05 01:39:00,
2013-11-04 20:40:00,52.4,44.4,30.31,SSW,198,0.0,0.0,74,0.00,,,0.00,Wunderground v.1.15,2013-11-05 01:40:00,
2013-11-04 20:41:00,52.4,44.4,30.31,SSW,198,0.0,0.0,74,0.00,,,0.00,Wunderground v.1.15,2013-11-05 01:41:00,
2013-11-04 20:44:00,52.4,44.4,30.31,SSW,198,0.0,0.0,74,0.00,,,0.00,Wunderground v.1.15,2013-11-05 01:44:00,
2013-11-04 20:45:00,52.4,44.4,30.31,SSW,198,0.0,0.0,74,0.00,,,0.00,Wunderground v.1.15,2013-11-05 01:45:00,
2013-11-04 20:47:00,52.5,44.1,30.31,SSW,198,0.0,0.0,73,0.00,,,0.00,Wunderground v.1.15,2013-11-05 01:47:00,
2013-11-04 20:51:00,52.7,43.9,30.31,SSW,198,0.0,0.0,72,0.00,,,0.00,Wunderground v.1.15,2013-11-05 01:51:00,
2013-11-04 20:52:00,52.7,43.9,30.31,SSW,198,0.0,0.0,72,0.00,,,0.00,Wunderground v.1.15,2013-11-05 01:52:00,
2013-11-04 20:53:00,52.7,43.9,30.31,SSW,198,0.0,0.0,72,0.00,,,0.00,Wunderground v.1.15,2013-11-05 01:53:00,
2013-11-04 20:57:00,52.8,43.7,30.31,SSW,198,0.0,0.0,71,0.00,,,0.00,Wunderground v.1.15,2013-11-05 01:57:00,
2013-11-04 20:59:00,52.8,43.7,30.31,SSW,198,0.0,0.0,71,0.00,,,0.00,Wunderground v.1.15,2013-11-05 01:59:00,
2013-11-04 21:00:00,53.0,43.8,30.31,SSW,198,0.0,0.0,71,0.00,,,0.00,Wunderground v.1.15,2013-11-05 02:00:00,
2013-11-04 21:01:00,53.0,43.8,30.31,SSW,198,0.0,0.0,71,0.00,,,0.00,Wunderground v.1.15,2013-11-05 02:01:00,
2013-11-04 21:02:00,53.0,43.5,30.31,SSW,198,0.0,0.0,70,0.00,,,0.00,Wunderground v.1.15,2013-11-05 02:02:00,
2013-11-04 21:04:00,53.1,43.6,30.31,SSW,198,0.0,0.0,70,0.00,,,0.00,Wunderground v.1.15,2013-11-05 02:04:00,
2013-11-04 21:06:00,53.1,43.9,30.31,SSW,198,0.0,0.0,71,0.00,,,0.00,Wunderground v.1.15,2013-11-05 02:06:00,
2013-11-04 21:07:00,53.1,43.9,30.31,SSW,198,0.0,0.0,71,0.00,,,0.00,Wunderground v.1.15,2013-11-05 02:07:00,
2013-11-04 21:09:00,53.0,43.8,30.31,SSW,198,0.0,0.0,71,0.00,,,0.00,Wunderground v.1.15,2013-11-05 02:09:00,
2013-11-04 21:12:00,53.0,43.8,30.31,SSW,198,0.0,0.0,71,0.00,,,0.00,Wunderground v.1.15,2013-11-05 02:12:00,
2013-11-04 21:13:00,52.8,43.7,30.31,SSW,198,0.0,0.0,71,0.00,,,0.00,Wunderground v.1.15,2013-11-05 02:13:00,
2013-11-04 21:16:00,52.8,43.7,30.31,SSW,198,0.0,0.0,71,0.00,,,0.00,Wunderground v.1.15,2013-11-05 02:16:00,
2013-11-04 21:17:00,52.8,43.7,30.31,SSW,198,0.0,0.0,71,0.00,,,0.00,Wunderground v.1.15,2013-11-05 02:17:00,
2013-11-04 21:20:00,52.8,43.7,30.31,SSW,198,0.0,0.0,71,0.00,,,0.00,Wunderground v.1.15,2013-11-05 02:20:00,
2013-11-04 21:22:00,52.8,43.7,30.31,SSW,198,0.0,0.0,71,0.00,,,0.00,Wunderground v.1.15,2013-11-05 02:22:00,
2013-11-04 21:23:00,52.8,43.7,30.31,SSW,198,0.0,0.0,71,0.00,,,0.00,Wunderground v.1.15,2013-11-05 02:23:00,
2013-11-04 21:24:00,52.8,43.7,30.31,SSW,198,0.0,0.0,71,0.00,,,0.00,Wunderground v.1.15,2013-11-05 02:24:00,
2013-11-04 21:25:00,52.8,43.7,30.31,SSW,198,0.0,0.0,71,0.00,,,0.00,Wunderground v.1.15,2013-11-05 02:25:00,
2013-11-04 21:28:00,52.8,43.7,30.31,SSW,198,0.0,0.0,71,0.00,,,0.00,Wunderground v.1.15,2013-11-05 02:28:00,
2013-11-04 21:29:00,52.8,43.7,30.31,SSW,198,0.0,0.0,71,0.00,,,0.00,Wunderground v.1.15,2013-11-05 02:29:00,
2013-11-04 21:31:00,52.8,43.7,30.31,SSW,198,0.0,0.0,71,0.00,,,0.00,Wunderground v.1.15,2013-11-05 02:31:00,
2013-11-04 21:34:00,52.8,44.0,30.31,SSW,198,0.0,0.0,72,0.00,,,0.00,Wunderground v.1.15,2013-11-05 02:34:00,
2013-11-04 21:37:00,52.7,43.9,30.31,SSW,198,0.0,0.0,72,0.00,,,0.00,Wunderground v.1.15,2013-11-05 02:37:00,
2013-11-04 21:38:00,52.7,43.9,30.31,SSW,198,0.0,0.0,72,0.00,,,0.00,Wunderground v.1.15,2013-11-05 02:38:00,
2013-11-04 21:39:00,52.5,43.7,30.31,SSW,198,0.0,0.0,72,0.00,,,0.00,Wunderground v.1.15,2013-11-05 02:39:00,
2013-11-04 21:43:00,52.2,43.8,30.31,SSW,198,0.0,0.0,73,0.00,,,0.00,Wunderground v.1.15,2013-11-05 02:43:00,
2013-11-04 21:44:00,52.2,44.2,30.31,SSW,198,0.0,0.0,74,0.00,,,0.00,Wunderground v.1.15,2013-11-05 02:44:00,
2013-11-04 21:45:00,52.1,44.1,30.31,SSW,198,0.0,0.0,74,0.00,,,0.00,Wunderground v.1.15,2013-11-05 02:45:00,
2013-11-04 21:47:00,52.1,43.7,30.31,SSW,198,0.0,0.0,73,0.00,,,0.00,Wunderground v.1.15,2013-11-05 02:47:00,
2013-11-04 21:49:00,52.1,43.7,30.31,SSW,198,0.0,0.0,73,0.00,,,0.00,Wunderground v.1.15,2013-11-05 02:49:00,
2013-11-04 21:50:00,51.9,43.5,30.31,SSW,198,0.0,0.0,73,0.00,,,0.00,Wunderground v.1.15,2013-11-05 02:50:00,
2013-11-04 21:53:00,51.9,43.5,30.31,SSW,198,0.0,0.0,73,0.00,,,0.00,Wunderground v.1.15,2013-11-05 02:53:00,
2013-11-04 21:55:00,51.9,43.9,30.31,SSW,198,0.0,0.0,74,0.00,,,0.00,Wunderground v.1.15,2013-11-05 02:55:00,
2013-11-04 21:57:00,51.8,43.8,30.31,SSW,198,0.0,0.0,74,0.00,,,0.00,Wunderground v.1.15,2013-11-05 02:57:00,
2013-11-04 21:59:00,51.8,43.8,30.31,SSW,198,0.0,0.0,74,0.00,,,0.00,Wunderground v.1.15,2013-11-05 02:59:00,
2013-11-04 22:00:00,51.8,43.8,30.31,SSW,198,0.0,0.0,74,0.00,,,0.00,Wunderground v.1.15,2013-11-05 03:00:00,
2013-11-04 22:02:00,51.8,43.8,30.31,SSW,198,0.0,0.0,74,0.00,,,0.00,Wunderground v.1.15,2013-11-05 03:02:00,
2013-11-04 22:03:00,51.6,43.6,30.31,SSW,198,0.0,0.0,74,0.00,,,0.00,Wunderground v.1.15,2013-11-05 03:03:00,
2013-11-04 22:04:00,51.6,43.9,30.31,SSW,198,0.0,0.0,75,0.00,,,0.00,Wunderground v.1.15,2013-11-05 03:04:00,
2013-11-04 22:06:00,51.5,44.2,30.31,SSW,198,0.0,0.0,76,0.00,,,0.00,Wunderground v.1.15,2013-11-05 03:06:00,
2013-11-04 22:10:00,51.3,44.0,30.31,SSW,198,0.0,0.0,76,0.00,,,0.00,Wunderground v.1.15,2013-11-05 03:10:00,
2013-11-04 22:12:00,51.2,43.9,30.31,SSW,198,0.0,0.0,76,0.00,,,0.00,Wunderground v.1.15,2013-11-05 03:12:00,
2013-11-04 22:15:00,51.2,43.9,30.32,SSW,198,0.0,0.0,76,0.00,,,0.00,Wunderground v.1.15,2013-11-05 03:15:00,
2013-11-04 22:18:00,51.2,43.5,30.32,SSW,198,0.0,0.0,75,0.00,,,0.00,Wunderground v.1.15,2013-11-05 03:18:00,
2013-11-04 22:19:00,51.2,43.5,30.32,SSW,198,0.0,0.0,75,0.00,,,0.00,Wunderground v.1.15,2013-11-05 03:19:00,
2013-11-04 22:20:00,51.2,43.5,30.32,SSW,198,0.0,0.0,75,0.00,,,0.00,Wunderground v.1.15,2013-11-05 03:20:00,
2013-11-04 22:21:00,51.2,43.5,30.32,SSW,198,0.0,0.0,75,0.00,,,0.00,Wunderground v.1.15,2013-11-05 03:21:00,
2013-11-04 22:22:00,51.2,43.5,30.32,SSW,198,0.0,0.0,75,0.00,,,0.00,Wunderground v.1.15,2013-11-05 03:22:00,
2013-11-04 22:23:00,51.2,43.5,30.32,SSW,198,0.0,0.0,75,0.00,,,0.00,Wunderground v.1.15,2013-11-05 03:23:00,
2013-11-04 22:25:00,51.0,43.4,30.32,SSW,198,0.0,0.0,75,0.00,,,0.00,Wunderground v.1.15,2013-11-05 03:25:00,
2013-11-04 22:26:00,51.0,43.4,30.32,SSW,198,0.0,0.0,75,0.00,,,0.00,Wunderground v.1.15,2013-11-05 03:26:00,
2013-11-04 22:27:00,51.0,43.4,30.32,SSW,198,0.0,0.0,75,0.00,,,0.00,Wunderground v.1.15,2013-11-05 03:27:00,
2013-11-04 22:28:00,51.0,43.4,30.32,SSW,198,0.0,0.0,75,0.00,,,0.00,Wunderground v.1.15,2013-11-05 03:28:00,
2013-11-04 22:29:00,51.0,43.7,30.32,SSW,198,0.0,0.0,76,0.00,,,0.00,Wunderground v.1.15,2013-11-05 03:29:00,
2013-11-04 22:30:00,50.9,43.6,30.31,SSW,198,0.0,0.0,76,0.00,,,0.00,Wunderground v.1.15,2013-11-05 03:30:00,
2013-11-04 22:31:00,50.9,43.6,30.31,SSW,198,0.0,0.0,76,0.00,,,0.00,Wunderground v.1.15,2013-11-05 03:31:00,
2013-11-04 22:35:00,50.7,43.8,30.31,SSW,198,0.0,0.0,77,0.00,,,0.00,Wunderground v.1.15,2013-11-05 03:35:00,
2013-11-04 22:36:00,50.7,43.8,30.31,SSW,198,0.0,0.0,77,0.00,,,0.00,Wunderground v.1.15,2013-11-05 03:36:00,
2013-11-04 22:37:00,50.7,43.8,30.31,SSW,198,0.0,0.0,77,0.00,,,0.00,Wunderground v.1.15,2013-11-05 03:37:00,
2013-11-04 22:42:00,50.6,43.7,30.31,SSW,198,0.0,0.0,77,0.00,,,0.00,Wunderground v.1.15,2013-11-05 03:42:00,
2013-11-04 22:44:00,50.6,43.7,30.31,SSW,198,0.0,0.0,77,0.00,,,0.00,Wunderground v.1.15,2013-11-05 03:44:00,
2013-11-04 22:45:00,50.6,43.7,30.31,SSW,198,0.0,0.0,77,0.00,,,0.00,Wunderground v.1.15,2013-11-05 03:45:00,
2013-11-04 22:46:00,50.6,43.7,30.31,SSW,198,0.0,0.0,77,0.00,,,0.00,Wunderground v.1.15,2013-11-05 03:46:00,
2013-11-04 22:47:00,50.6,43.7,30.31,SSW,198,0.0,0.0,77,0.00,,,0.00,Wunderground v.1.15,2013-11-05 03:47:00,
2013-11-04 22:48:00,50.6,43.7,30.31,SSW,198,0.0,0.0,77,0.00,,,0.00,Wunderground v.1.15,2013-11-05 03:48:00,
2013-11-04 22:50:00,50.6,43.7,30.31,SSW,198,0.0,0.0,77,0.00,,,0.00,Wunderground v.1.15,2013-11-05 03:50:00,
2013-11-04 22:52:00,50.6,44.0,30.31,SSW,198,0.0,0.0,78,0.00,,,0.00,Wunderground v.1.15,2013-11-05 03:52:00,
2013-11-04 22:53:00,50.6,44.0,30.31,SSW,198,0.0,0.0,78,0.00,,,0.00,Wunderground v.1.15,2013-11-05 03:53:00,
2013-11-04 22:57:00,50.6,43.7,30.31,SSW,198,0.0,0.0,77,0.00,,,0.00,Wunderground v.1.15,2013-11-05 03:57:00,
2013-11-04 22:58:00,50.6,43.7,30.31,SSW,198,0.0,0.0,77,0.00,,,0.00,Wunderground v.1.15,2013-11-05 03:58:00,
2013-11-04 23:00:00,50.7,43.8,30.31,SSW,198,0.0,0.0,77,0.00,,,0.00,Wunderground v.1.15,2013-11-05 04:00:00,
2013-11-04 23:01:00,50.7,43.8,30.31,SSW,198,0.0,0.0,77,0.00,,,0.00,Wunderground v.1.15,2013-11-05 04:01:00,
2013-11-04 23:03:00,50.6,44.0,30.31,SSW,198,0.0,0.0,78,0.00,,,0.00,Wunderground v.1.15,2013-11-05 04:03:00,
2013-11-04 23:04:00,50.6,44.0,30.31,SSW,198,0.0,0.0,78,0.00,,,0.00,Wunderground v.1.15,2013-11-05 04:04:00,
2013-11-04 23:06:00,50.6,44.0,30.31,SSW,198,0.0,0.0,78,0.00,,,0.00,Wunderground v.1.15,2013-11-05 04:06:00,
2013-11-04 23:07:00,50.6,43.7,30.31,SSW,198,0.0,0.0,77,0.00,,,0.00,Wunderground v.1.15,2013-11-05 04:07:00,
2013-11-04 23:11:00,50.6,43.7,30.31,SSW,198,0.0,0.0,77,0.00,,,0.00,Wunderground v.1.15,2013-11-05 04:11:00,
2013-11-04 23:12:00,50.6,43.7,30.31,SSW,198,0.0,0.0,77,0.00,,,0.00,Wunderground v.1.15,2013-11-05 04:12:00,
2013-11-04 23:13:00,50.6,43.7,30.31,SSW,198,0.0,0.0,77,0.00,,,0.00,Wunderground v.1.15,2013-11-05 04:13:00,
2013-11-04 23:18:00,50.9,43.6,30.31,SSW,198,0.0,0.0,76,0.00,,,0.00,Wunderground v.1.15,2013-11-05 04:18:00,
2013-11-04 23:19:00,51.0,43.7,30.31,SSW,198,0.0,0.0,76,0.00,,,0.00,Wunderground v.1.15,2013-11-05 04:19:00,
2013-11-04 23:20:00,51.0,43.7,30.31,SSW,198,0.0,0.0,76,0.00,,,0.00,Wunderground v.1.15,2013-11-05 04:20:00,
2013-11-04 23:21:00,51.2,43.9,30.31,SSW,198,0.0,0.0,76,0.00,,,0.00,Wunderground v.1.15,2013-11-05 04:21:00,
2013-11-04 23:24:00,51.2,43.5,30.31,SSW,198,0.0,0.0,75,0.00,,,0.00,Wunderground v.1.15,2013-11-05 04:24:00,
2013-11-04 23:25:00,51.3,43.6,30.31,SSW,198,0.0,0.0,75,0.00,,,0.00,Wunderground v.1.15,2013-11-05 04:25:00,
2013-11-04 23:26:00,51.3,43.6,30.31,SSW,198,0.0,0.0,75,0.00,,,0.00,Wunderground v.1.15,2013-11-05 04:26:00,
2013-11-04 23:27:00,51.3,44.0,30.31,SSW,198,0.0,0.0,76,0.00,,,0.00,Wunderground v.1.15,2013-11-05 04:27:00,
2013-11-04 23:28:00,51.3,44.0,30.31,SSW,198,0.0,0.0,76,0.00,,,0.00,Wunderground v.1.15,2013-11-05 04:28:00,
2013-11-04 23:31:00,51.2,43.9,30.31,SSW,198,0.0,0.0,76,0.00,,,0.00,Wunderground v.1.15,2013-11-05 04:31:00,
2013-11-04 23:32:00,51.2,43.9,30.31,SSW,198,0.0,0.0,76,0.00,,,0.00,Wunderground v.1.15,2013-11-05 04:32:00,
2013-11-04 23:34:00,51.2,43.9,30.31,SSW,198,0.0,0.0,76,0.00,,,0.00,Wunderground v.1.15,2013-11-05 04:34:00,
2013-11-04 23:36:00,51.2,43.5,30.31,SSW,198,0.0,0.0,75,0.00,,,0.00,Wunderground v.1.15,2013-11-05 04:36:00,
2013-11-04 23:38:00,51.2,43.5,30.31,SSW,198,0.0,0.0,75,0.00,,,0.00,Wunderground v.1.15,2013-11-05 04:38:00,
2013-11-04 23:39:00,51.2,43.9,30.31,SSW,198,0.0,0.0,76,0.00,,,0.00,Wunderground v.1.15,2013-11-05 04:39:00,
2013-11-04 23:40:00,51.2,43.9,30.31,SSW,198,0.0,0.0,76,0.00,,,0.00,Wunderground v.1.15,2013-11-05 04:40:00,
2013-11-04 23:41:00,51.2,43.9,30.31,SSW,198,0.0,0.0,76,0.00,,,0.00,Wunderground v.1.15,2013-11-05 04:41:00,
2013-11-04 23:42:00,51.2,43.9,30.31,SSW,198,0.0,0.0,76,0.00,,,0.00,Wunderground v.1.15,2013-11-05 04:42:00,
2013-11-04 23:46:00,51.3,44.0,30.32,SSW,198,0.0,0.0,76,0.00,,,0.00,Wunderground v.1.15,2013-11-05 04:46:00,
2013-11-04 23:47:00,51.3,44.3,30.32,SSW,198,0.0,0.0,77,0.00,,,0.00,Wunderground v.1.15,2013-11-05 04:47:00,
2013-11-04 23:48:00,51.3,44.7,30.32,SSW,198,0.0,0.0,78,0.00,,,0.00,Wunderground v.1.15,2013-11-05 04:48:00,
2013-11-04 23:50:00,51.3,44.7,30.32,SSW,198,0.0,0.0,78,0.00,,,0.00,Wunderground v.1.15,2013-11-05 04:50:00,
2013-11-04 23:51:00,51.3,44.7,30.32,SSW,198,0.0,0.0,78,0.00,,,0.00,Wunderground v.1.15,2013-11-05 04:51:00,
2013-11-04 23:53:00,51.0,44.7,30.32,SSW,198,0.0,0.0,79,0.00,,,0.00,Wunderground v.1.15,2013-11-05 04:53:00,
2013-11-04 23:56:00,50.7,44.8,30.32,SSW,198,0.0,0.0,80,0.00,,,0.00,Wunderground v.1.15,2013-11-05 04:56:00,
2013-11-04 23:58:00,50.6,44.7,30.32,SSW,198,0.0,0.0,80,0.00,,,0.00,Wunderground v.1.15,2013-11-05 04:58:00,
2013-11-04 23:59:00,50.6,44.7,30.32,SSW,198,0.0,0.0,80,0.00,,,0.00,Wunderground v.1.15,2013-11-05 04:59:00,